<?xml version="1.0" encoding="UTF-8" standalone="no" ?>
<gpx xmlns="http://www.topografix.com/GPX/1/1" xmlns:xsi="http://www.w3.org/2001/XMLSchema-instance" xsi:schemaLocation="http://www.topografix.com/GPX/1/1 http://www.topografix.com/GPX/1/1/gpx.xsd" version="1.1" creator="VisuGPX - https://www.visugpx.com">
  <metadata>
    <name>Monte Colombo</name>
  </metadata>
  <trk>
    <name><![CDATA[2020-01-29 12:21:51]]></name>
    <trkseg>
      <trkpt lat="44.19839" lon="7.49595">
        <ele>1383.96</ele>
        <time>2020-01-29T07:30:51Z</time>
      </trkpt>
      <trkpt lat="44.1984" lon="7.49593">
        <ele>1385.88</ele>
        <time>2020-01-29T07:31:10Z</time>
      </trkpt>
      <trkpt lat="44.19842" lon="7.496">
        <ele>1383.96</ele>
        <time>2020-01-29T07:31:29Z</time>
      </trkpt>
      <trkpt lat="44.19844" lon="7.49599">
        <ele>1382.51</ele>
        <time>2020-01-29T07:32:05Z</time>
      </trkpt>
      <trkpt lat="44.19844" lon="7.49596">
        <ele>1383.47</ele>
        <time>2020-01-29T07:32:24Z</time>
      </trkpt>
      <trkpt lat="44.19843" lon="7.49594">
        <ele>1382.51</ele>
        <time>2020-01-29T07:32:37Z</time>
      </trkpt>
      <trkpt lat="44.19843" lon="7.49597">
        <ele>1382.03</ele>
        <time>2020-01-29T07:32:46Z</time>
      </trkpt>
      <trkpt lat="44.19843" lon="7.49594">
        <ele>1381.55</ele>
        <time>2020-01-29T07:32:56Z</time>
      </trkpt>
      <trkpt lat="44.19841" lon="7.49594">
        <ele>1381.55</ele>
        <time>2020-01-29T07:33:14Z</time>
      </trkpt>
      <trkpt lat="44.19842" lon="7.49593">
        <ele>1380.59</ele>
        <time>2020-01-29T07:33:32Z</time>
      </trkpt>
      <trkpt lat="44.19843" lon="7.49594">
        <ele>1380.59</ele>
        <time>2020-01-29T07:33:47Z</time>
      </trkpt>
      <trkpt lat="44.19843" lon="7.49594">
        <ele>1381.07</ele>
        <time>2020-01-29T07:33:57Z</time>
      </trkpt>
      <trkpt lat="44.19844" lon="7.49592">
        <ele>1383.96</ele>
        <time>2020-01-29T07:34:12Z</time>
      </trkpt>
      <trkpt lat="44.19855" lon="7.49589">
        <ele>1382.99</ele>
        <time>2020-01-29T07:34:27Z</time>
      </trkpt>
      <trkpt lat="44.19857" lon="7.49583">
        <ele>1385.88</ele>
        <time>2020-01-29T07:34:40Z</time>
      </trkpt>
      <trkpt lat="44.1986" lon="7.49575">
        <ele>1389.24</ele>
        <time>2020-01-29T07:34:53Z</time>
      </trkpt>
      <trkpt lat="44.19862" lon="7.49573">
        <ele>1389.24</ele>
        <time>2020-01-29T07:35:03Z</time>
      </trkpt>
      <trkpt lat="44.19861" lon="7.49574">
        <ele>1388.28</ele>
        <time>2020-01-29T07:35:17Z</time>
      </trkpt>
      <trkpt lat="44.1986" lon="7.49573">
        <ele>1387.8</ele>
        <time>2020-01-29T07:35:34Z</time>
      </trkpt>
      <trkpt lat="44.19859" lon="7.49577">
        <ele>1390.68</ele>
        <time>2020-01-29T07:35:46Z</time>
      </trkpt>
      <trkpt lat="44.19859" lon="7.49579">
        <ele>1393.09</ele>
        <time>2020-01-29T07:36:05Z</time>
      </trkpt>
      <trkpt lat="44.1986" lon="7.49578">
        <ele>1393.09</ele>
        <time>2020-01-29T07:36:17Z</time>
      </trkpt>
      <trkpt lat="44.19861" lon="7.49574">
        <ele>1392.13</ele>
        <time>2020-01-29T07:36:30Z</time>
      </trkpt>
      <trkpt lat="44.19862" lon="7.4957">
        <ele>1390.2</ele>
        <time>2020-01-29T07:36:45Z</time>
      </trkpt>
      <trkpt lat="44.1987" lon="7.49563">
        <ele>1390.68</ele>
        <time>2020-01-29T07:36:52Z</time>
      </trkpt>
      <trkpt lat="44.19879" lon="7.49546">
        <ele>1391.65</ele>
        <time>2020-01-29T07:37:06Z</time>
      </trkpt>
      <trkpt lat="44.19882" lon="7.49539">
        <ele>1393.09</ele>
        <time>2020-01-29T07:37:15Z</time>
      </trkpt>
      <trkpt lat="44.19887" lon="7.49532">
        <ele>1392.61</ele>
        <time>2020-01-29T07:37:24Z</time>
      </trkpt>
      <trkpt lat="44.19892" lon="7.49523">
        <ele>1392.13</ele>
        <time>2020-01-29T07:37:37Z</time>
      </trkpt>
      <trkpt lat="44.19894" lon="7.49515">
        <ele>1390.68</ele>
        <time>2020-01-29T07:37:52Z</time>
      </trkpt>
      <trkpt lat="44.19896" lon="7.49511">
        <ele>1388.76</ele>
        <time>2020-01-29T07:37:58Z</time>
      </trkpt>
      <trkpt lat="44.19899" lon="7.49499">
        <ele>1388.76</ele>
        <time>2020-01-29T07:38:11Z</time>
      </trkpt>
      <trkpt lat="44.19902" lon="7.49489">
        <ele>1388.76</ele>
        <time>2020-01-29T07:38:24Z</time>
      </trkpt>
      <trkpt lat="44.19897" lon="7.49484">
        <ele>1389.24</ele>
        <time>2020-01-29T07:38:38Z</time>
      </trkpt>
      <trkpt lat="44.19891" lon="7.49487">
        <ele>1388.76</ele>
        <time>2020-01-29T07:38:51Z</time>
      </trkpt>
      <trkpt lat="44.19886" lon="7.49491">
        <ele>1389.24</ele>
        <time>2020-01-29T07:39:01Z</time>
      </trkpt>
      <trkpt lat="44.19879" lon="7.49493">
        <ele>1392.13</ele>
        <time>2020-01-29T07:39:15Z</time>
      </trkpt>
      <trkpt lat="44.19874" lon="7.49494">
        <ele>1394.53</ele>
        <time>2020-01-29T07:39:29Z</time>
      </trkpt>
      <trkpt lat="44.19864" lon="7.49494">
        <ele>1395.01</ele>
        <time>2020-01-29T07:39:45Z</time>
      </trkpt>
      <trkpt lat="44.19856" lon="7.49498">
        <ele>1391.17</ele>
        <time>2020-01-29T07:40:01Z</time>
      </trkpt>
      <trkpt lat="44.19847" lon="7.49503">
        <ele>1393.57</ele>
        <time>2020-01-29T07:40:16Z</time>
      </trkpt>
      <trkpt lat="44.19837" lon="7.49514">
        <ele>1396.45</ele>
        <time>2020-01-29T07:40:30Z</time>
      </trkpt>
      <trkpt lat="44.19826" lon="7.49525">
        <ele>1394.05</ele>
        <time>2020-01-29T07:40:46Z</time>
      </trkpt>
      <trkpt lat="44.19818" lon="7.49527">
        <ele>1395.97</ele>
        <time>2020-01-29T07:40:58Z</time>
      </trkpt>
      <trkpt lat="44.1981" lon="7.49516">
        <ele>1398.86</ele>
        <time>2020-01-29T07:41:14Z</time>
      </trkpt>
      <trkpt lat="44.19802" lon="7.4951">
        <ele>1405.1</ele>
        <time>2020-01-29T07:41:28Z</time>
      </trkpt>
      <trkpt lat="44.19796" lon="7.49507">
        <ele>1410.39</ele>
        <time>2020-01-29T07:41:41Z</time>
      </trkpt>
      <trkpt lat="44.1979" lon="7.49506">
        <ele>1414.24</ele>
        <time>2020-01-29T07:41:55Z</time>
      </trkpt>
      <trkpt lat="44.1978" lon="7.49503">
        <ele>1415.2</ele>
        <time>2020-01-29T07:42:09Z</time>
      </trkpt>
      <trkpt lat="44.19773" lon="7.49501">
        <ele>1417.12</ele>
        <time>2020-01-29T07:42:23Z</time>
      </trkpt>
      <trkpt lat="44.19767" lon="7.49499">
        <ele>1419.52</ele>
        <time>2020-01-29T07:42:35Z</time>
      </trkpt>
      <trkpt lat="44.19763" lon="7.49491">
        <ele>1420.49</ele>
        <time>2020-01-29T07:42:49Z</time>
      </trkpt>
      <trkpt lat="44.19764" lon="7.49485">
        <ele>1420.49</ele>
        <time>2020-01-29T07:43:02Z</time>
      </trkpt>
      <trkpt lat="44.19763" lon="7.49478">
        <ele>1420.49</ele>
        <time>2020-01-29T07:43:13Z</time>
      </trkpt>
      <trkpt lat="44.19761" lon="7.49466">
        <ele>1425.77</ele>
        <time>2020-01-29T07:43:29Z</time>
      </trkpt>
      <trkpt lat="44.19761" lon="7.49457">
        <ele>1428.66</ele>
        <time>2020-01-29T07:43:43Z</time>
      </trkpt>
      <trkpt lat="44.19764" lon="7.49454">
        <ele>1431.06</ele>
        <time>2020-01-29T07:43:56Z</time>
      </trkpt>
      <trkpt lat="44.19765" lon="7.49449">
        <ele>1430.1</ele>
        <time>2020-01-29T07:44:09Z</time>
      </trkpt>
      <trkpt lat="44.19763" lon="7.49446">
        <ele>1428.66</ele>
        <time>2020-01-29T07:44:25Z</time>
      </trkpt>
      <trkpt lat="44.19761" lon="7.49441">
        <ele>1431.06</ele>
        <time>2020-01-29T07:44:38Z</time>
      </trkpt>
      <trkpt lat="44.19761" lon="7.49433">
        <ele>1431.54</ele>
        <time>2020-01-29T07:44:50Z</time>
      </trkpt>
      <trkpt lat="44.19757" lon="7.49436">
        <ele>1432.98</ele>
        <time>2020-01-29T07:45:04Z</time>
      </trkpt>
      <trkpt lat="44.19751" lon="7.49436">
        <ele>1433.94</ele>
        <time>2020-01-29T07:45:14Z</time>
      </trkpt>
      <trkpt lat="44.19748" lon="7.49435">
        <ele>1436.35</ele>
        <time>2020-01-29T07:45:27Z</time>
      </trkpt>
      <trkpt lat="44.19739" lon="7.49438">
        <ele>1437.31</ele>
        <time>2020-01-29T07:45:47Z</time>
      </trkpt>
      <trkpt lat="44.19733" lon="7.49438">
        <ele>1438.27</ele>
        <time>2020-01-29T07:46:00Z</time>
      </trkpt>
      <trkpt lat="44.19725" lon="7.49438">
        <ele>1440.19</ele>
        <time>2020-01-29T07:46:14Z</time>
      </trkpt>
      <trkpt lat="44.19721" lon="7.49435">
        <ele>1444.04</ele>
        <time>2020-01-29T07:46:28Z</time>
      </trkpt>
      <trkpt lat="44.19722" lon="7.49429">
        <ele>1444.52</ele>
        <time>2020-01-29T07:46:39Z</time>
      </trkpt>
      <trkpt lat="44.19718" lon="7.49427">
        <ele>1443.08</ele>
        <time>2020-01-29T07:46:52Z</time>
      </trkpt>
      <trkpt lat="44.19709" lon="7.49429">
        <ele>1444.52</ele>
        <time>2020-01-29T07:47:08Z</time>
      </trkpt>
      <trkpt lat="44.19707" lon="7.49424">
        <ele>1449.32</ele>
        <time>2020-01-29T07:47:21Z</time>
      </trkpt>
      <trkpt lat="44.19708" lon="7.4942">
        <ele>1454.61</ele>
        <time>2020-01-29T07:47:37Z</time>
      </trkpt>
      <trkpt lat="44.19712" lon="7.4941">
        <ele>1457.98</ele>
        <time>2020-01-29T07:47:51Z</time>
      </trkpt>
      <trkpt lat="44.19713" lon="7.49406">
        <ele>1458.94</ele>
        <time>2020-01-29T07:48:02Z</time>
      </trkpt>
      <trkpt lat="44.19708" lon="7.49407">
        <ele>1461.82</ele>
        <time>2020-01-29T07:48:16Z</time>
      </trkpt>
      <trkpt lat="44.19699" lon="7.4941">
        <ele>1461.82</ele>
        <time>2020-01-29T07:48:32Z</time>
      </trkpt>
      <trkpt lat="44.1969" lon="7.49414">
        <ele>1460.38</ele>
        <time>2020-01-29T07:48:51Z</time>
      </trkpt>
      <trkpt lat="44.1968" lon="7.49419">
        <ele>1461.34</ele>
        <time>2020-01-29T07:49:05Z</time>
      </trkpt>
      <trkpt lat="44.19673" lon="7.49421">
        <ele>1461.34</ele>
        <time>2020-01-29T07:49:19Z</time>
      </trkpt>
      <trkpt lat="44.19672" lon="7.49422">
        <ele>1462.78</ele>
        <time>2020-01-29T07:49:36Z</time>
      </trkpt>
      <trkpt lat="44.19672" lon="7.49418">
        <ele>1465.67</ele>
        <time>2020-01-29T07:49:49Z</time>
      </trkpt>
      <trkpt lat="44.1967" lon="7.49416">
        <ele>1465.19</ele>
        <time>2020-01-29T07:50:03Z</time>
      </trkpt>
      <trkpt lat="44.19663" lon="7.49415">
        <ele>1467.59</ele>
        <time>2020-01-29T07:50:16Z</time>
      </trkpt>
      <trkpt lat="44.19657" lon="7.49411">
        <ele>1472.88</ele>
        <time>2020-01-29T07:50:31Z</time>
      </trkpt>
      <trkpt lat="44.19653" lon="7.49406">
        <ele>1478.16</ele>
        <time>2020-01-29T07:50:42Z</time>
      </trkpt>
      <trkpt lat="44.19649" lon="7.49403">
        <ele>1482.97</ele>
        <time>2020-01-29T07:51:02Z</time>
      </trkpt>
      <trkpt lat="44.19641" lon="7.49401">
        <ele>1484.89</ele>
        <time>2020-01-29T07:51:17Z</time>
      </trkpt>
      <trkpt lat="44.19631" lon="7.49398">
        <ele>1485.37</ele>
        <time>2020-01-29T07:51:31Z</time>
      </trkpt>
      <trkpt lat="44.1962" lon="7.49398">
        <ele>1483.93</ele>
        <time>2020-01-29T07:51:46Z</time>
      </trkpt>
      <trkpt lat="44.1961" lon="7.49398">
        <ele>1484.41</ele>
        <time>2020-01-29T07:52:02Z</time>
      </trkpt>
      <trkpt lat="44.19607" lon="7.49398">
        <ele>1484.89</ele>
        <time>2020-01-29T07:52:07Z</time>
      </trkpt>
      <trkpt lat="44.19597" lon="7.49398">
        <ele>1485.37</ele>
        <time>2020-01-29T07:52:21Z</time>
      </trkpt>
      <trkpt lat="44.19591" lon="7.49393">
        <ele>1489.22</ele>
        <time>2020-01-29T07:52:35Z</time>
      </trkpt>
      <trkpt lat="44.19582" lon="7.4939">
        <ele>1492.58</ele>
        <time>2020-01-29T07:52:49Z</time>
      </trkpt>
      <trkpt lat="44.19574" lon="7.49386">
        <ele>1497.39</ele>
        <time>2020-01-29T07:53:06Z</time>
      </trkpt>
      <trkpt lat="44.19564" lon="7.49382">
        <ele>1499.79</ele>
        <time>2020-01-29T07:53:21Z</time>
      </trkpt>
      <trkpt lat="44.1956" lon="7.49377">
        <ele>1503.64</ele>
        <time>2020-01-29T07:53:35Z</time>
      </trkpt>
      <trkpt lat="44.19553" lon="7.4937">
        <ele>1507.48</ele>
        <time>2020-01-29T07:53:53Z</time>
      </trkpt>
      <trkpt lat="44.1955" lon="7.49367">
        <ele>1507.97</ele>
        <time>2020-01-29T07:54:09Z</time>
      </trkpt>
      <trkpt lat="44.19548" lon="7.49357">
        <ele>1507</ele>
        <time>2020-01-29T07:54:23Z</time>
      </trkpt>
      <trkpt lat="44.19548" lon="7.49345">
        <ele>1509.41</ele>
        <time>2020-01-29T07:54:40Z</time>
      </trkpt>
      <trkpt lat="44.19545" lon="7.4934">
        <ele>1507.97</ele>
        <time>2020-01-29T07:54:53Z</time>
      </trkpt>
      <trkpt lat="44.19542" lon="7.49336">
        <ele>1510.37</ele>
        <time>2020-01-29T07:55:07Z</time>
      </trkpt>
      <trkpt lat="44.19538" lon="7.4933">
        <ele>1510.85</ele>
        <time>2020-01-29T07:55:21Z</time>
      </trkpt>
      <trkpt lat="44.19538" lon="7.49323">
        <ele>1512.29</ele>
        <time>2020-01-29T07:55:35Z</time>
      </trkpt>
      <trkpt lat="44.19538" lon="7.49317">
        <ele>1511.33</ele>
        <time>2020-01-29T07:55:51Z</time>
      </trkpt>
      <trkpt lat="44.19535" lon="7.49312">
        <ele>1515.18</ele>
        <time>2020-01-29T07:56:09Z</time>
      </trkpt>
      <trkpt lat="44.19538" lon="7.49304">
        <ele>1516.62</ele>
        <time>2020-01-29T07:56:24Z</time>
      </trkpt>
      <trkpt lat="44.19538" lon="7.49299">
        <ele>1518.06</ele>
        <time>2020-01-29T07:56:38Z</time>
      </trkpt>
      <trkpt lat="44.19538" lon="7.49296">
        <ele>1520.94</ele>
        <time>2020-01-29T07:56:48Z</time>
      </trkpt>
      <trkpt lat="44.19542" lon="7.49293">
        <ele>1523.35</ele>
        <time>2020-01-29T07:57:03Z</time>
      </trkpt>
      <trkpt lat="44.19541" lon="7.49289">
        <ele>1523.35</ele>
        <time>2020-01-29T07:57:17Z</time>
      </trkpt>
      <trkpt lat="44.19538" lon="7.49282">
        <ele>1525.27</ele>
        <time>2020-01-29T07:57:33Z</time>
      </trkpt>
      <trkpt lat="44.19534" lon="7.4928">
        <ele>1527.67</ele>
        <time>2020-01-29T07:57:46Z</time>
      </trkpt>
      <trkpt lat="44.19529" lon="7.49278">
        <ele>1529.11</ele>
        <time>2020-01-29T07:57:59Z</time>
      </trkpt>
      <trkpt lat="44.19522" lon="7.49276">
        <ele>1529.11</ele>
        <time>2020-01-29T07:58:11Z</time>
      </trkpt>
      <trkpt lat="44.19522" lon="7.49269">
        <ele>1530.08</ele>
        <time>2020-01-29T07:58:21Z</time>
      </trkpt>
      <trkpt lat="44.19526" lon="7.49269">
        <ele>1529.59</ele>
        <time>2020-01-29T07:58:34Z</time>
      </trkpt>
      <trkpt lat="44.19527" lon="7.49264">
        <ele>1527.67</ele>
        <time>2020-01-29T07:58:47Z</time>
      </trkpt>
      <trkpt lat="44.19526" lon="7.49257">
        <ele>1527.19</ele>
        <time>2020-01-29T07:59:00Z</time>
      </trkpt>
      <trkpt lat="44.19518" lon="7.49252">
        <ele>1530.08</ele>
        <time>2020-01-29T07:59:17Z</time>
      </trkpt>
      <trkpt lat="44.19514" lon="7.49251">
        <ele>1532.48</ele>
        <time>2020-01-29T07:59:30Z</time>
      </trkpt>
      <trkpt lat="44.19511" lon="7.49245">
        <ele>1534.4</ele>
        <time>2020-01-29T07:59:44Z</time>
      </trkpt>
      <trkpt lat="44.19513" lon="7.49236">
        <ele>1539.69</ele>
        <time>2020-01-29T07:59:58Z</time>
      </trkpt>
      <trkpt lat="44.19515" lon="7.49229">
        <ele>1542.57</ele>
        <time>2020-01-29T08:00:11Z</time>
      </trkpt>
      <trkpt lat="44.19517" lon="7.49224">
        <ele>1544.01</ele>
        <time>2020-01-29T08:00:26Z</time>
      </trkpt>
      <trkpt lat="44.19514" lon="7.49219">
        <ele>1547.86</ele>
        <time>2020-01-29T08:00:41Z</time>
      </trkpt>
      <trkpt lat="44.19513" lon="7.49214">
        <ele>1549.3</ele>
        <time>2020-01-29T08:00:54Z</time>
      </trkpt>
      <trkpt lat="44.19516" lon="7.49212">
        <ele>1547.86</ele>
        <time>2020-01-29T08:01:09Z</time>
      </trkpt>
      <trkpt lat="44.19519" lon="7.49211">
        <ele>1548.34</ele>
        <time>2020-01-29T08:01:21Z</time>
      </trkpt>
      <trkpt lat="44.19523" lon="7.49206">
        <ele>1549.3</ele>
        <time>2020-01-29T08:01:34Z</time>
      </trkpt>
      <trkpt lat="44.1952" lon="7.49198">
        <ele>1551.71</ele>
        <time>2020-01-29T08:01:49Z</time>
      </trkpt>
      <trkpt lat="44.19514" lon="7.49194">
        <ele>1555.55</ele>
        <time>2020-01-29T08:02:06Z</time>
      </trkpt>
      <trkpt lat="44.19513" lon="7.49189">
        <ele>1558.92</ele>
        <time>2020-01-29T08:02:19Z</time>
      </trkpt>
      <trkpt lat="44.19513" lon="7.49183">
        <ele>1559.4</ele>
        <time>2020-01-29T08:02:31Z</time>
      </trkpt>
      <trkpt lat="44.19518" lon="7.4918">
        <ele>1557.95</ele>
        <time>2020-01-29T08:02:47Z</time>
      </trkpt>
      <trkpt lat="44.19523" lon="7.49181">
        <ele>1560.36</ele>
        <time>2020-01-29T08:03:03Z</time>
      </trkpt>
      <trkpt lat="44.19526" lon="7.49174">
        <ele>1560.36</ele>
        <time>2020-01-29T08:03:19Z</time>
      </trkpt>
      <trkpt lat="44.1952" lon="7.49168">
        <ele>1560.36</ele>
        <time>2020-01-29T08:03:34Z</time>
      </trkpt>
      <trkpt lat="44.19517" lon="7.4916">
        <ele>1565.16</ele>
        <time>2020-01-29T08:03:52Z</time>
      </trkpt>
      <trkpt lat="44.19516" lon="7.49156">
        <ele>1567.57</ele>
        <time>2020-01-29T08:04:06Z</time>
      </trkpt>
      <trkpt lat="44.19521" lon="7.49151">
        <ele>1568.05</ele>
        <time>2020-01-29T08:04:18Z</time>
      </trkpt>
      <trkpt lat="44.19523" lon="7.4915">
        <ele>1568.05</ele>
        <time>2020-01-29T08:04:30Z</time>
      </trkpt>
      <trkpt lat="44.19523" lon="7.49147">
        <ele>1570.45</ele>
        <time>2020-01-29T08:04:43Z</time>
      </trkpt>
      <trkpt lat="44.19524" lon="7.4914">
        <ele>1574.78</ele>
        <time>2020-01-29T08:04:58Z</time>
      </trkpt>
      <trkpt lat="44.19526" lon="7.49142">
        <ele>1578.62</ele>
        <time>2020-01-29T08:05:09Z</time>
      </trkpt>
      <trkpt lat="44.19531" lon="7.49139">
        <ele>1580.06</ele>
        <time>2020-01-29T08:05:26Z</time>
      </trkpt>
      <trkpt lat="44.19533" lon="7.49136">
        <ele>1582.95</ele>
        <time>2020-01-29T08:05:38Z</time>
      </trkpt>
      <trkpt lat="44.19531" lon="7.49134">
        <ele>1583.91</ele>
        <time>2020-01-29T08:05:51Z</time>
      </trkpt>
      <trkpt lat="44.19532" lon="7.49123">
        <ele>1582.47</ele>
        <time>2020-01-29T08:06:13Z</time>
      </trkpt>
      <trkpt lat="44.19528" lon="7.49118">
        <ele>1581.51</ele>
        <time>2020-01-29T08:06:23Z</time>
      </trkpt>
      <trkpt lat="44.19526" lon="7.4911">
        <ele>1581.51</ele>
        <time>2020-01-29T08:06:33Z</time>
      </trkpt>
      <trkpt lat="44.19523" lon="7.49105">
        <ele>1582.47</ele>
        <time>2020-01-29T08:06:44Z</time>
      </trkpt>
      <trkpt lat="44.19518" lon="7.49101">
        <ele>1583.91</ele>
        <time>2020-01-29T08:06:55Z</time>
      </trkpt>
      <trkpt lat="44.19512" lon="7.49099">
        <ele>1584.39</ele>
        <time>2020-01-29T08:07:08Z</time>
      </trkpt>
      <trkpt lat="44.19509" lon="7.491">
        <ele>1584.87</ele>
        <time>2020-01-29T08:07:27Z</time>
      </trkpt>
      <trkpt lat="44.19505" lon="7.49099">
        <ele>1585.35</ele>
        <time>2020-01-29T08:07:31Z</time>
      </trkpt>
      <trkpt lat="44.19493" lon="7.49099">
        <ele>1584.87</ele>
        <time>2020-01-29T08:07:46Z</time>
      </trkpt>
      <trkpt lat="44.19484" lon="7.49098">
        <ele>1586.79</ele>
        <time>2020-01-29T08:08:00Z</time>
      </trkpt>
      <trkpt lat="44.19482" lon="7.49095">
        <ele>1582.47</ele>
        <time>2020-01-29T08:08:18Z</time>
      </trkpt>
      <trkpt lat="44.19482" lon="7.49094">
        <ele>1584.87</ele>
        <time>2020-01-29T08:08:29Z</time>
      </trkpt>
      <trkpt lat="44.19482" lon="7.49089">
        <ele>1587.27</ele>
        <time>2020-01-29T08:09:02Z</time>
      </trkpt>
      <trkpt lat="44.19478" lon="7.4909">
        <ele>1587.27</ele>
        <time>2020-01-29T08:09:16Z</time>
      </trkpt>
      <trkpt lat="44.1947" lon="7.49093">
        <ele>1588.24</ele>
        <time>2020-01-29T08:09:31Z</time>
      </trkpt>
      <trkpt lat="44.19462" lon="7.49092">
        <ele>1589.68</ele>
        <time>2020-01-29T08:09:45Z</time>
      </trkpt>
      <trkpt lat="44.19454" lon="7.49092">
        <ele>1591.6</ele>
        <time>2020-01-29T08:10:01Z</time>
      </trkpt>
      <trkpt lat="44.19447" lon="7.49093">
        <ele>1594.96</ele>
        <time>2020-01-29T08:10:16Z</time>
      </trkpt>
      <trkpt lat="44.1944" lon="7.49091">
        <ele>1597.37</ele>
        <time>2020-01-29T08:10:36Z</time>
      </trkpt>
      <trkpt lat="44.19434" lon="7.49089">
        <ele>1601.69</ele>
        <time>2020-01-29T08:10:51Z</time>
      </trkpt>
      <trkpt lat="44.19428" lon="7.49082">
        <ele>1603.14</ele>
        <time>2020-01-29T08:11:04Z</time>
      </trkpt>
      <trkpt lat="44.19421" lon="7.49072">
        <ele>1604.1</ele>
        <time>2020-01-29T08:11:21Z</time>
      </trkpt>
      <trkpt lat="44.19415" lon="7.49064">
        <ele>1604.58</ele>
        <time>2020-01-29T08:11:34Z</time>
      </trkpt>
      <trkpt lat="44.1941" lon="7.49055">
        <ele>1607.46</ele>
        <time>2020-01-29T08:11:45Z</time>
      </trkpt>
      <trkpt lat="44.19407" lon="7.49048">
        <ele>1609.86</ele>
        <time>2020-01-29T08:11:58Z</time>
      </trkpt>
      <trkpt lat="44.19405" lon="7.49039">
        <ele>1610.35</ele>
        <time>2020-01-29T08:12:11Z</time>
      </trkpt>
      <trkpt lat="44.19403" lon="7.49033">
        <ele>1612.27</ele>
        <time>2020-01-29T08:12:25Z</time>
      </trkpt>
      <trkpt lat="44.194" lon="7.49026">
        <ele>1615.15</ele>
        <time>2020-01-29T08:12:35Z</time>
      </trkpt>
      <trkpt lat="44.19398" lon="7.49027">
        <ele>1618.04</ele>
        <time>2020-01-29T08:12:47Z</time>
      </trkpt>
      <trkpt lat="44.19393" lon="7.49028">
        <ele>1619.48</ele>
        <time>2020-01-29T08:12:58Z</time>
      </trkpt>
      <trkpt lat="44.19386" lon="7.49029">
        <ele>1619.48</ele>
        <time>2020-01-29T08:13:10Z</time>
      </trkpt>
      <trkpt lat="44.19387" lon="7.49029">
        <ele>1620.44</ele>
        <time>2020-01-29T08:13:26Z</time>
      </trkpt>
      <trkpt lat="44.1938" lon="7.49028">
        <ele>1620.92</ele>
        <time>2020-01-29T08:13:48Z</time>
      </trkpt>
      <trkpt lat="44.19371" lon="7.49027">
        <ele>1620.92</ele>
        <time>2020-01-29T08:14:03Z</time>
      </trkpt>
      <trkpt lat="44.19364" lon="7.49025">
        <ele>1623.32</ele>
        <time>2020-01-29T08:14:17Z</time>
      </trkpt>
      <trkpt lat="44.19358" lon="7.4902">
        <ele>1626.21</ele>
        <time>2020-01-29T08:14:31Z</time>
      </trkpt>
      <trkpt lat="44.19353" lon="7.49012">
        <ele>1629.09</ele>
        <time>2020-01-29T08:14:45Z</time>
      </trkpt>
      <trkpt lat="44.19347" lon="7.49004">
        <ele>1631.49</ele>
        <time>2020-01-29T08:14:58Z</time>
      </trkpt>
      <trkpt lat="44.19347" lon="7.49003">
        <ele>1634.38</ele>
        <time>2020-01-29T08:15:16Z</time>
      </trkpt>
      <trkpt lat="44.1934" lon="7.48996">
        <ele>1634.38</ele>
        <time>2020-01-29T08:15:30Z</time>
      </trkpt>
      <trkpt lat="44.19331" lon="7.48987">
        <ele>1634.86</ele>
        <time>2020-01-29T08:15:44Z</time>
      </trkpt>
      <trkpt lat="44.19323" lon="7.48977">
        <ele>1636.3</ele>
        <time>2020-01-29T08:16:01Z</time>
      </trkpt>
      <trkpt lat="44.19316" lon="7.48968">
        <ele>1637.74</ele>
        <time>2020-01-29T08:16:15Z</time>
      </trkpt>
      <trkpt lat="44.19307" lon="7.48961">
        <ele>1638.7</ele>
        <time>2020-01-29T08:16:31Z</time>
      </trkpt>
      <trkpt lat="44.193" lon="7.48956">
        <ele>1639.67</ele>
        <time>2020-01-29T08:16:44Z</time>
      </trkpt>
      <trkpt lat="44.19293" lon="7.48951">
        <ele>1639.67</ele>
        <time>2020-01-29T08:16:59Z</time>
      </trkpt>
      <trkpt lat="44.19288" lon="7.48949">
        <ele>1642.07</ele>
        <time>2020-01-29T08:17:13Z</time>
      </trkpt>
      <trkpt lat="44.19284" lon="7.48944">
        <ele>1643.51</ele>
        <time>2020-01-29T08:17:22Z</time>
      </trkpt>
      <trkpt lat="44.19276" lon="7.48937">
        <ele>1646.4</ele>
        <time>2020-01-29T08:17:37Z</time>
      </trkpt>
      <trkpt lat="44.19272" lon="7.48933">
        <ele>1647.84</ele>
        <time>2020-01-29T08:17:49Z</time>
      </trkpt>
      <trkpt lat="44.19264" lon="7.48926">
        <ele>1649.28</ele>
        <time>2020-01-29T08:18:02Z</time>
      </trkpt>
      <trkpt lat="44.1926" lon="7.48921">
        <ele>1650.24</ele>
        <time>2020-01-29T08:18:17Z</time>
      </trkpt>
      <trkpt lat="44.19254" lon="7.48913">
        <ele>1652.64</ele>
        <time>2020-01-29T08:18:31Z</time>
      </trkpt>
      <trkpt lat="44.19248" lon="7.48904">
        <ele>1653.6</ele>
        <time>2020-01-29T08:18:46Z</time>
      </trkpt>
      <trkpt lat="44.19241" lon="7.48893">
        <ele>1653.6</ele>
        <time>2020-01-29T08:19:01Z</time>
      </trkpt>
      <trkpt lat="44.19236" lon="7.48885">
        <ele>1654.09</ele>
        <time>2020-01-29T08:19:16Z</time>
      </trkpt>
      <trkpt lat="44.19231" lon="7.48874">
        <ele>1656.01</ele>
        <time>2020-01-29T08:19:32Z</time>
      </trkpt>
      <trkpt lat="44.19228" lon="7.48863">
        <ele>1655.53</ele>
        <time>2020-01-29T08:19:48Z</time>
      </trkpt>
      <trkpt lat="44.19227" lon="7.48855">
        <ele>1656.97</ele>
        <time>2020-01-29T08:20:01Z</time>
      </trkpt>
      <trkpt lat="44.19226" lon="7.48845">
        <ele>1658.41</ele>
        <time>2020-01-29T08:20:16Z</time>
      </trkpt>
      <trkpt lat="44.19226" lon="7.48838">
        <ele>1660.33</ele>
        <time>2020-01-29T08:20:27Z</time>
      </trkpt>
      <trkpt lat="44.19225" lon="7.48828">
        <ele>1661.3</ele>
        <time>2020-01-29T08:20:40Z</time>
      </trkpt>
      <trkpt lat="44.19225" lon="7.48817">
        <ele>1663.22</ele>
        <time>2020-01-29T08:20:52Z</time>
      </trkpt>
      <trkpt lat="44.19224" lon="7.48809">
        <ele>1665.62</ele>
        <time>2020-01-29T08:21:04Z</time>
      </trkpt>
      <trkpt lat="44.19224" lon="7.48801">
        <ele>1668.51</ele>
        <time>2020-01-29T08:21:16Z</time>
      </trkpt>
      <trkpt lat="44.19223" lon="7.48793">
        <ele>1670.43</ele>
        <time>2020-01-29T08:21:27Z</time>
      </trkpt>
      <trkpt lat="44.19222" lon="7.48783">
        <ele>1670.91</ele>
        <time>2020-01-29T08:21:45Z</time>
      </trkpt>
      <trkpt lat="44.19213" lon="7.48784">
        <ele>1672.35</ele>
        <time>2020-01-29T08:21:59Z</time>
      </trkpt>
      <trkpt lat="44.19207" lon="7.48786">
        <ele>1672.83</ele>
        <time>2020-01-29T08:22:14Z</time>
      </trkpt>
      <trkpt lat="44.19201" lon="7.4879">
        <ele>1675.72</ele>
        <time>2020-01-29T08:22:29Z</time>
      </trkpt>
      <trkpt lat="44.19193" lon="7.48797">
        <ele>1677.64</ele>
        <time>2020-01-29T08:22:48Z</time>
      </trkpt>
      <trkpt lat="44.19187" lon="7.48805">
        <ele>1678.6</ele>
        <time>2020-01-29T08:23:02Z</time>
      </trkpt>
      <trkpt lat="44.1918" lon="7.48809">
        <ele>1681</ele>
        <time>2020-01-29T08:23:17Z</time>
      </trkpt>
      <trkpt lat="44.19175" lon="7.48799">
        <ele>1684.37</ele>
        <time>2020-01-29T08:23:31Z</time>
      </trkpt>
      <trkpt lat="44.19174" lon="7.48789">
        <ele>1687.73</ele>
        <time>2020-01-29T08:23:46Z</time>
      </trkpt>
      <trkpt lat="44.19174" lon="7.48784">
        <ele>1690.62</ele>
        <time>2020-01-29T08:23:57Z</time>
      </trkpt>
      <trkpt lat="44.19173" lon="7.48776">
        <ele>1690.14</ele>
        <time>2020-01-29T08:24:15Z</time>
      </trkpt>
      <trkpt lat="44.19173" lon="7.48769">
        <ele>1691.58</ele>
        <time>2020-01-29T08:24:27Z</time>
      </trkpt>
      <trkpt lat="44.19172" lon="7.48758">
        <ele>1693.02</ele>
        <time>2020-01-29T08:24:43Z</time>
      </trkpt>
      <trkpt lat="44.19172" lon="7.48751">
        <ele>1695.9</ele>
        <time>2020-01-29T08:24:56Z</time>
      </trkpt>
      <trkpt lat="44.19167" lon="7.48755">
        <ele>1697.34</ele>
        <time>2020-01-29T08:25:08Z</time>
      </trkpt>
      <trkpt lat="44.19162" lon="7.4876">
        <ele>1698.79</ele>
        <time>2020-01-29T08:25:22Z</time>
      </trkpt>
      <trkpt lat="44.19156" lon="7.48765">
        <ele>1700.23</ele>
        <time>2020-01-29T08:25:35Z</time>
      </trkpt>
      <trkpt lat="44.19153" lon="7.48769">
        <ele>1700.71</ele>
        <time>2020-01-29T08:25:50Z</time>
      </trkpt>
      <trkpt lat="44.19147" lon="7.48774">
        <ele>1703.11</ele>
        <time>2020-01-29T08:26:06Z</time>
      </trkpt>
      <trkpt lat="44.19142" lon="7.48778">
        <ele>1703.59</ele>
        <time>2020-01-29T08:26:20Z</time>
      </trkpt>
      <trkpt lat="44.19136" lon="7.48781">
        <ele>1707.44</ele>
        <time>2020-01-29T08:26:37Z</time>
      </trkpt>
      <trkpt lat="44.19128" lon="7.48783">
        <ele>1709.84</ele>
        <time>2020-01-29T08:26:53Z</time>
      </trkpt>
      <trkpt lat="44.19123" lon="7.48782">
        <ele>1714.65</ele>
        <time>2020-01-29T08:27:06Z</time>
      </trkpt>
      <trkpt lat="44.19117" lon="7.4878">
        <ele>1720.42</ele>
        <time>2020-01-29T08:27:20Z</time>
      </trkpt>
      <trkpt lat="44.19112" lon="7.48775">
        <ele>1721.86</ele>
        <time>2020-01-29T08:27:31Z</time>
      </trkpt>
      <trkpt lat="44.19105" lon="7.4877">
        <ele>1722.82</ele>
        <time>2020-01-29T08:27:45Z</time>
      </trkpt>
      <trkpt lat="44.19098" lon="7.48766">
        <ele>1724.74</ele>
        <time>2020-01-29T08:28:00Z</time>
      </trkpt>
      <trkpt lat="44.19089" lon="7.48763">
        <ele>1726.18</ele>
        <time>2020-01-29T08:28:13Z</time>
      </trkpt>
      <trkpt lat="44.19085" lon="7.4876">
        <ele>1731.47</ele>
        <time>2020-01-29T08:28:28Z</time>
      </trkpt>
      <trkpt lat="44.19077" lon="7.48758">
        <ele>1732.91</ele>
        <time>2020-01-29T08:28:41Z</time>
      </trkpt>
      <trkpt lat="44.19066" lon="7.48756">
        <ele>1734.36</ele>
        <time>2020-01-29T08:28:59Z</time>
      </trkpt>
      <trkpt lat="44.19057" lon="7.48752">
        <ele>1736.76</ele>
        <time>2020-01-29T08:29:16Z</time>
      </trkpt>
      <trkpt lat="44.19049" lon="7.48745">
        <ele>1737.72</ele>
        <time>2020-01-29T08:29:30Z</time>
      </trkpt>
      <trkpt lat="44.19049" lon="7.48745">
        <ele>1739.64</ele>
        <time>2020-01-29T08:29:43Z</time>
      </trkpt>
      <trkpt lat="44.19045" lon="7.48745">
        <ele>1738.2</ele>
        <time>2020-01-29T08:30:08Z</time>
      </trkpt>
      <trkpt lat="44.19045" lon="7.48742">
        <ele>1739.16</ele>
        <time>2020-01-29T08:30:23Z</time>
      </trkpt>
      <trkpt lat="44.19043" lon="7.4874">
        <ele>1739.16</ele>
        <time>2020-01-29T08:30:59Z</time>
      </trkpt>
      <trkpt lat="44.19043" lon="7.48742">
        <ele>1739.64</ele>
        <time>2020-01-29T08:31:23Z</time>
      </trkpt>
      <trkpt lat="44.19043" lon="7.4874">
        <ele>1737.24</ele>
        <time>2020-01-29T08:31:40Z</time>
      </trkpt>
      <trkpt lat="44.19037" lon="7.48734">
        <ele>1737.72</ele>
        <time>2020-01-29T08:31:54Z</time>
      </trkpt>
      <trkpt lat="44.19031" lon="7.48728">
        <ele>1739.16</ele>
        <time>2020-01-29T08:32:06Z</time>
      </trkpt>
      <trkpt lat="44.19026" lon="7.48719">
        <ele>1738.2</ele>
        <time>2020-01-29T08:32:21Z</time>
      </trkpt>
      <trkpt lat="44.19024" lon="7.4871">
        <ele>1740.6</ele>
        <time>2020-01-29T08:32:35Z</time>
      </trkpt>
      <trkpt lat="44.1902" lon="7.48702">
        <ele>1742.05</ele>
        <time>2020-01-29T08:32:50Z</time>
      </trkpt>
      <trkpt lat="44.19015" lon="7.48692">
        <ele>1743.01</ele>
        <time>2020-01-29T08:33:03Z</time>
      </trkpt>
      <trkpt lat="44.19013" lon="7.48689">
        <ele>1746.85</ele>
        <time>2020-01-29T08:33:18Z</time>
      </trkpt>
      <trkpt lat="44.19008" lon="7.48681">
        <ele>1749.74</ele>
        <time>2020-01-29T08:33:35Z</time>
      </trkpt>
      <trkpt lat="44.19007" lon="7.48672">
        <ele>1752.62</ele>
        <time>2020-01-29T08:33:48Z</time>
      </trkpt>
      <trkpt lat="44.19007" lon="7.48668">
        <ele>1755.99</ele>
        <time>2020-01-29T08:34:03Z</time>
      </trkpt>
      <trkpt lat="44.19008" lon="7.4866">
        <ele>1756.95</ele>
        <time>2020-01-29T08:34:15Z</time>
      </trkpt>
      <trkpt lat="44.19002" lon="7.48653">
        <ele>1759.83</ele>
        <time>2020-01-29T08:34:29Z</time>
      </trkpt>
      <trkpt lat="44.18993" lon="7.48653">
        <ele>1762.23</ele>
        <time>2020-01-29T08:34:48Z</time>
      </trkpt>
      <trkpt lat="44.18987" lon="7.48649">
        <ele>1767.04</ele>
        <time>2020-01-29T08:35:04Z</time>
      </trkpt>
      <trkpt lat="44.18978" lon="7.48649">
        <ele>1766.56</ele>
        <time>2020-01-29T08:35:18Z</time>
      </trkpt>
      <trkpt lat="44.18973" lon="7.48652">
        <ele>1768</ele>
        <time>2020-01-29T08:35:34Z</time>
      </trkpt>
      <trkpt lat="44.1897" lon="7.48641">
        <ele>1768.96</ele>
        <time>2020-01-29T08:35:48Z</time>
      </trkpt>
      <trkpt lat="44.18968" lon="7.48632">
        <ele>1772.33</ele>
        <time>2020-01-29T08:36:04Z</time>
      </trkpt>
      <trkpt lat="44.18968" lon="7.48623">
        <ele>1776.17</ele>
        <time>2020-01-29T08:36:19Z</time>
      </trkpt>
      <trkpt lat="44.18967" lon="7.48614">
        <ele>1780.02</ele>
        <time>2020-01-29T08:36:34Z</time>
      </trkpt>
      <trkpt lat="44.18967" lon="7.48602">
        <ele>1781.94</ele>
        <time>2020-01-29T08:36:49Z</time>
      </trkpt>
      <trkpt lat="44.18969" lon="7.48594">
        <ele>1784.82</ele>
        <time>2020-01-29T08:37:05Z</time>
      </trkpt>
      <trkpt lat="44.18967" lon="7.48591">
        <ele>1785.31</ele>
        <time>2020-01-29T08:37:16Z</time>
      </trkpt>
      <trkpt lat="44.18957" lon="7.48592">
        <ele>1786.75</ele>
        <time>2020-01-29T08:37:34Z</time>
      </trkpt>
      <trkpt lat="44.1895" lon="7.48596">
        <ele>1786.75</ele>
        <time>2020-01-29T08:37:48Z</time>
      </trkpt>
      <trkpt lat="44.18945" lon="7.48598">
        <ele>1788.67</ele>
        <time>2020-01-29T08:37:59Z</time>
      </trkpt>
      <trkpt lat="44.18943" lon="7.48589">
        <ele>1791.07</ele>
        <time>2020-01-29T08:38:14Z</time>
      </trkpt>
      <trkpt lat="44.18941" lon="7.48582">
        <ele>1793.96</ele>
        <time>2020-01-29T08:38:27Z</time>
      </trkpt>
      <trkpt lat="44.18938" lon="7.48573">
        <ele>1796.36</ele>
        <time>2020-01-29T08:38:40Z</time>
      </trkpt>
      <trkpt lat="44.18934" lon="7.48564">
        <ele>1797.8</ele>
        <time>2020-01-29T08:38:55Z</time>
      </trkpt>
      <trkpt lat="44.1893" lon="7.48555">
        <ele>1800.21</ele>
        <time>2020-01-29T08:39:10Z</time>
      </trkpt>
      <trkpt lat="44.18927" lon="7.48549">
        <ele>1801.65</ele>
        <time>2020-01-29T08:39:25Z</time>
      </trkpt>
      <trkpt lat="44.18922" lon="7.4854">
        <ele>1804.53</ele>
        <time>2020-01-29T08:39:37Z</time>
      </trkpt>
      <trkpt lat="44.1892" lon="7.48531">
        <ele>1806.45</ele>
        <time>2020-01-29T08:39:56Z</time>
      </trkpt>
      <trkpt lat="44.18917" lon="7.48524">
        <ele>1808.86</ele>
        <time>2020-01-29T08:40:09Z</time>
      </trkpt>
      <trkpt lat="44.18915" lon="7.4852">
        <ele>1809.34</ele>
        <time>2020-01-29T08:40:27Z</time>
      </trkpt>
      <trkpt lat="44.18913" lon="7.48518">
        <ele>1814.15</ele>
        <time>2020-01-29T08:40:48Z</time>
      </trkpt>
      <trkpt lat="44.18907" lon="7.48511">
        <ele>1818.95</ele>
        <time>2020-01-29T08:41:02Z</time>
      </trkpt>
      <trkpt lat="44.18902" lon="7.48504">
        <ele>1819.43</ele>
        <time>2020-01-29T08:41:14Z</time>
      </trkpt>
      <trkpt lat="44.18901" lon="7.48501">
        <ele>1819.91</ele>
        <time>2020-01-29T08:41:27Z</time>
      </trkpt>
      <trkpt lat="44.18897" lon="7.48494">
        <ele>1821.84</ele>
        <time>2020-01-29T08:41:48Z</time>
      </trkpt>
      <trkpt lat="44.18893" lon="7.48488">
        <ele>1826.16</ele>
        <time>2020-01-29T08:42:03Z</time>
      </trkpt>
      <trkpt lat="44.1889" lon="7.48485">
        <ele>1829.05</ele>
        <time>2020-01-29T08:42:15Z</time>
      </trkpt>
      <trkpt lat="44.18888" lon="7.48485">
        <ele>1827.12</ele>
        <time>2020-01-29T08:42:34Z</time>
      </trkpt>
      <trkpt lat="44.18886" lon="7.48482">
        <ele>1828.56</ele>
        <time>2020-01-29T08:42:54Z</time>
      </trkpt>
      <trkpt lat="44.18884" lon="7.48474">
        <ele>1830.97</ele>
        <time>2020-01-29T08:43:08Z</time>
      </trkpt>
      <trkpt lat="44.18888" lon="7.48467">
        <ele>1835.29</ele>
        <time>2020-01-29T08:43:26Z</time>
      </trkpt>
      <trkpt lat="44.18889" lon="7.48462">
        <ele>1838.66</ele>
        <time>2020-01-29T08:43:39Z</time>
      </trkpt>
      <trkpt lat="44.18894" lon="7.48455">
        <ele>1843.47</ele>
        <time>2020-01-29T08:43:54Z</time>
      </trkpt>
      <trkpt lat="44.18899" lon="7.48451">
        <ele>1847.79</ele>
        <time>2020-01-29T08:44:07Z</time>
      </trkpt>
      <trkpt lat="44.18901" lon="7.48447">
        <ele>1847.79</ele>
        <time>2020-01-29T08:44:17Z</time>
      </trkpt>
      <trkpt lat="44.18902" lon="7.48437">
        <ele>1845.39</ele>
        <time>2020-01-29T08:44:34Z</time>
      </trkpt>
      <trkpt lat="44.18899" lon="7.48432">
        <ele>1846.35</ele>
        <time>2020-01-29T08:44:50Z</time>
      </trkpt>
      <trkpt lat="44.18893" lon="7.48428">
        <ele>1848.75</ele>
        <time>2020-01-29T08:45:01Z</time>
      </trkpt>
      <trkpt lat="44.18888" lon="7.48424">
        <ele>1851.16</ele>
        <time>2020-01-29T08:45:17Z</time>
      </trkpt>
      <trkpt lat="44.18881" lon="7.48419">
        <ele>1854.52</ele>
        <time>2020-01-29T08:45:29Z</time>
      </trkpt>
      <trkpt lat="44.18875" lon="7.48411">
        <ele>1855</ele>
        <time>2020-01-29T08:45:41Z</time>
      </trkpt>
      <trkpt lat="44.18874" lon="7.48405">
        <ele>1857.4</ele>
        <time>2020-01-29T08:45:55Z</time>
      </trkpt>
      <trkpt lat="44.18872" lon="7.48403">
        <ele>1857.89</ele>
        <time>2020-01-29T08:46:08Z</time>
      </trkpt>
      <trkpt lat="44.18866" lon="7.48396">
        <ele>1861.73</ele>
        <time>2020-01-29T08:46:23Z</time>
      </trkpt>
      <trkpt lat="44.18864" lon="7.48389">
        <ele>1862.21</ele>
        <time>2020-01-29T08:46:34Z</time>
      </trkpt>
      <trkpt lat="44.18864" lon="7.48379">
        <ele>1865.09</ele>
        <time>2020-01-29T08:46:47Z</time>
      </trkpt>
      <trkpt lat="44.18861" lon="7.48374">
        <ele>1868.46</ele>
        <time>2020-01-29T08:47:01Z</time>
      </trkpt>
      <trkpt lat="44.18854" lon="7.48376">
        <ele>1872.79</ele>
        <time>2020-01-29T08:47:13Z</time>
      </trkpt>
      <trkpt lat="44.1885" lon="7.48374">
        <ele>1876.15</ele>
        <time>2020-01-29T08:47:26Z</time>
      </trkpt>
      <trkpt lat="44.18843" lon="7.48373">
        <ele>1879.03</ele>
        <time>2020-01-29T08:47:38Z</time>
      </trkpt>
      <trkpt lat="44.18839" lon="7.48373">
        <ele>1880.96</ele>
        <time>2020-01-29T08:48:00Z</time>
      </trkpt>
      <trkpt lat="44.18836" lon="7.48374">
        <ele>1881.92</ele>
        <time>2020-01-29T08:48:20Z</time>
      </trkpt>
      <trkpt lat="44.18828" lon="7.48374">
        <ele>1882.4</ele>
        <time>2020-01-29T08:48:36Z</time>
      </trkpt>
      <trkpt lat="44.18823" lon="7.48375">
        <ele>1884.32</ele>
        <time>2020-01-29T08:48:59Z</time>
      </trkpt>
      <trkpt lat="44.18814" lon="7.48375">
        <ele>1884.8</ele>
        <time>2020-01-29T08:49:15Z</time>
      </trkpt>
      <trkpt lat="44.18807" lon="7.48372">
        <ele>1886.72</ele>
        <time>2020-01-29T08:49:29Z</time>
      </trkpt>
      <trkpt lat="44.18798" lon="7.4837">
        <ele>1889.13</ele>
        <time>2020-01-29T08:49:42Z</time>
      </trkpt>
      <trkpt lat="44.18791" lon="7.48366">
        <ele>1890.09</ele>
        <time>2020-01-29T08:49:56Z</time>
      </trkpt>
      <trkpt lat="44.18783" lon="7.48363">
        <ele>1892.97</ele>
        <time>2020-01-29T08:50:09Z</time>
      </trkpt>
      <trkpt lat="44.18774" lon="7.48358">
        <ele>1894.9</ele>
        <time>2020-01-29T08:50:23Z</time>
      </trkpt>
      <trkpt lat="44.18766" lon="7.48353">
        <ele>1894.42</ele>
        <time>2020-01-29T08:50:38Z</time>
      </trkpt>
      <trkpt lat="44.18759" lon="7.48349">
        <ele>1894.42</ele>
        <time>2020-01-29T08:50:52Z</time>
      </trkpt>
      <trkpt lat="44.18749" lon="7.4834">
        <ele>1896.82</ele>
        <time>2020-01-29T08:51:08Z</time>
      </trkpt>
      <trkpt lat="44.18744" lon="7.48334">
        <ele>1898.74</ele>
        <time>2020-01-29T08:51:19Z</time>
      </trkpt>
      <trkpt lat="44.1874" lon="7.48328">
        <ele>1901.63</ele>
        <time>2020-01-29T08:51:33Z</time>
      </trkpt>
      <trkpt lat="44.18738" lon="7.48322">
        <ele>1903.55</ele>
        <time>2020-01-29T08:51:46Z</time>
      </trkpt>
      <trkpt lat="44.18737" lon="7.48321">
        <ele>1903.55</ele>
        <time>2020-01-29T08:52:04Z</time>
      </trkpt>
      <trkpt lat="44.18731" lon="7.48316">
        <ele>1903.07</ele>
        <time>2020-01-29T08:52:21Z</time>
      </trkpt>
      <trkpt lat="44.18727" lon="7.48307">
        <ele>1904.03</ele>
        <time>2020-01-29T08:52:36Z</time>
      </trkpt>
      <trkpt lat="44.1872" lon="7.48299">
        <ele>1905.95</ele>
        <time>2020-01-29T08:52:48Z</time>
      </trkpt>
      <trkpt lat="44.18717" lon="7.48293">
        <ele>1909.32</ele>
        <time>2020-01-29T08:53:06Z</time>
      </trkpt>
      <trkpt lat="44.1871" lon="7.48285">
        <ele>1912.2</ele>
        <time>2020-01-29T08:53:23Z</time>
      </trkpt>
      <trkpt lat="44.18703" lon="7.48281">
        <ele>1910.76</ele>
        <time>2020-01-29T08:53:40Z</time>
      </trkpt>
      <trkpt lat="44.18695" lon="7.48276">
        <ele>1913.16</ele>
        <time>2020-01-29T08:53:54Z</time>
      </trkpt>
      <trkpt lat="44.18689" lon="7.48273">
        <ele>1915.08</ele>
        <time>2020-01-29T08:54:06Z</time>
      </trkpt>
      <trkpt lat="44.18682" lon="7.48269">
        <ele>1917.01</ele>
        <time>2020-01-29T08:54:18Z</time>
      </trkpt>
      <trkpt lat="44.18675" lon="7.48263">
        <ele>1917.97</ele>
        <time>2020-01-29T08:54:30Z</time>
      </trkpt>
      <trkpt lat="44.18672" lon="7.48262">
        <ele>1919.89</ele>
        <time>2020-01-29T08:54:45Z</time>
      </trkpt>
      <trkpt lat="44.18668" lon="7.48259">
        <ele>1919.89</ele>
        <time>2020-01-29T08:55:02Z</time>
      </trkpt>
      <trkpt lat="44.18658" lon="7.48262">
        <ele>1919.89</ele>
        <time>2020-01-29T08:55:15Z</time>
      </trkpt>
      <trkpt lat="44.18652" lon="7.48266">
        <ele>1920.37</ele>
        <time>2020-01-29T08:55:20Z</time>
      </trkpt>
      <trkpt lat="44.18648" lon="7.48269">
        <ele>1920.85</ele>
        <time>2020-01-29T08:55:24Z</time>
      </trkpt>
      <trkpt lat="44.18646" lon="7.48271">
        <ele>1921.33</ele>
        <time>2020-01-29T08:55:27Z</time>
      </trkpt>
      <trkpt lat="44.18649" lon="7.48268">
        <ele>1925.66</ele>
        <time>2020-01-29T08:55:42Z</time>
      </trkpt>
      <trkpt lat="44.18649" lon="7.48269">
        <ele>1925.66</ele>
        <time>2020-01-29T08:55:56Z</time>
      </trkpt>
      <trkpt lat="44.18645" lon="7.48263">
        <ele>1927.1</ele>
        <time>2020-01-29T08:56:09Z</time>
      </trkpt>
      <trkpt lat="44.1864" lon="7.48262">
        <ele>1928.54</ele>
        <time>2020-01-29T08:56:21Z</time>
      </trkpt>
      <trkpt lat="44.18639" lon="7.48262">
        <ele>1928.54</ele>
        <time>2020-01-29T08:56:23Z</time>
      </trkpt>
      <trkpt lat="44.18633" lon="7.48264">
        <ele>1930.95</ele>
        <time>2020-01-29T08:56:37Z</time>
      </trkpt>
      <trkpt lat="44.18628" lon="7.48269">
        <ele>1930.95</ele>
        <time>2020-01-29T08:56:51Z</time>
      </trkpt>
      <trkpt lat="44.18619" lon="7.48276">
        <ele>1931.43</ele>
        <time>2020-01-29T08:57:08Z</time>
      </trkpt>
      <trkpt lat="44.18615" lon="7.48275">
        <ele>1933.83</ele>
        <time>2020-01-29T08:57:20Z</time>
      </trkpt>
      <trkpt lat="44.1861" lon="7.48268">
        <ele>1937.19</ele>
        <time>2020-01-29T08:57:34Z</time>
      </trkpt>
      <trkpt lat="44.18611" lon="7.4827">
        <ele>1944.88</ele>
        <time>2020-01-29T08:57:57Z</time>
      </trkpt>
      <trkpt lat="44.18607" lon="7.48265">
        <ele>1943.92</ele>
        <time>2020-01-29T08:58:20Z</time>
      </trkpt>
      <trkpt lat="44.18604" lon="7.48265">
        <ele>1939.12</ele>
        <time>2020-01-29T08:58:39Z</time>
      </trkpt>
      <trkpt lat="44.18603" lon="7.48263">
        <ele>1941.04</ele>
        <time>2020-01-29T08:59:16Z</time>
      </trkpt>
      <trkpt lat="44.18601" lon="7.4826">
        <ele>1936.71</ele>
        <time>2020-01-29T08:59:33Z</time>
      </trkpt>
      <trkpt lat="44.18603" lon="7.48258">
        <ele>1936.71</ele>
        <time>2020-01-29T08:59:51Z</time>
      </trkpt>
      <trkpt lat="44.186" lon="7.48257">
        <ele>1937.67</ele>
        <time>2020-01-29T09:00:07Z</time>
      </trkpt>
      <trkpt lat="44.186" lon="7.48255">
        <ele>1939.12</ele>
        <time>2020-01-29T09:00:24Z</time>
      </trkpt>
      <trkpt lat="44.18594" lon="7.4825">
        <ele>1939.6</ele>
        <time>2020-01-29T09:00:35Z</time>
      </trkpt>
      <trkpt lat="44.18591" lon="7.48247">
        <ele>1943.92</ele>
        <time>2020-01-29T09:00:48Z</time>
      </trkpt>
      <trkpt lat="44.1859" lon="7.4824">
        <ele>1946.81</ele>
        <time>2020-01-29T09:01:01Z</time>
      </trkpt>
      <trkpt lat="44.18587" lon="7.48233">
        <ele>1948.73</ele>
        <time>2020-01-29T09:01:15Z</time>
      </trkpt>
      <trkpt lat="44.18585" lon="7.48223">
        <ele>1953.54</ele>
        <time>2020-01-29T09:01:32Z</time>
      </trkpt>
      <trkpt lat="44.18578" lon="7.48213">
        <ele>1957.38</ele>
        <time>2020-01-29T09:01:50Z</time>
      </trkpt>
      <trkpt lat="44.18572" lon="7.48204">
        <ele>1959.3</ele>
        <time>2020-01-29T09:02:06Z</time>
      </trkpt>
      <trkpt lat="44.18565" lon="7.48194">
        <ele>1960.27</ele>
        <time>2020-01-29T09:02:22Z</time>
      </trkpt>
      <trkpt lat="44.18562" lon="7.48186">
        <ele>1963.15</ele>
        <time>2020-01-29T09:02:36Z</time>
      </trkpt>
      <trkpt lat="44.1856" lon="7.48183">
        <ele>1963.15</ele>
        <time>2020-01-29T09:02:56Z</time>
      </trkpt>
      <trkpt lat="44.18559" lon="7.4818">
        <ele>1964.11</ele>
        <time>2020-01-29T09:03:11Z</time>
      </trkpt>
      <trkpt lat="44.18555" lon="7.48182">
        <ele>1966.51</ele>
        <time>2020-01-29T09:03:23Z</time>
      </trkpt>
      <trkpt lat="44.18549" lon="7.48187">
        <ele>1968.44</ele>
        <time>2020-01-29T09:03:36Z</time>
      </trkpt>
      <trkpt lat="44.18542" lon="7.48193">
        <ele>1970.36</ele>
        <time>2020-01-29T09:03:50Z</time>
      </trkpt>
      <trkpt lat="44.18537" lon="7.48202">
        <ele>1972.76</ele>
        <time>2020-01-29T09:04:03Z</time>
      </trkpt>
      <trkpt lat="44.18534" lon="7.48208">
        <ele>1974.69</ele>
        <time>2020-01-29T09:04:20Z</time>
      </trkpt>
      <trkpt lat="44.18531" lon="7.4822">
        <ele>1975.17</ele>
        <time>2020-01-29T09:04:32Z</time>
      </trkpt>
      <trkpt lat="44.1853" lon="7.4823">
        <ele>1979.01</ele>
        <time>2020-01-29T09:04:50Z</time>
      </trkpt>
      <trkpt lat="44.18527" lon="7.48241">
        <ele>1980.93</ele>
        <time>2020-01-29T09:05:06Z</time>
      </trkpt>
      <trkpt lat="44.18525" lon="7.48249">
        <ele>1982.38</ele>
        <time>2020-01-29T09:05:22Z</time>
      </trkpt>
      <trkpt lat="44.18523" lon="7.48253">
        <ele>1981.41</ele>
        <time>2020-01-29T09:05:34Z</time>
      </trkpt>
      <trkpt lat="44.18518" lon="7.48263">
        <ele>1982.38</ele>
        <time>2020-01-29T09:05:49Z</time>
      </trkpt>
      <trkpt lat="44.18511" lon="7.48277">
        <ele>1984.3</ele>
        <time>2020-01-29T09:06:06Z</time>
      </trkpt>
      <trkpt lat="44.18514" lon="7.48282">
        <ele>1987.66</ele>
        <time>2020-01-29T09:06:24Z</time>
      </trkpt>
      <trkpt lat="44.18516" lon="7.4829">
        <ele>1991.03</ele>
        <time>2020-01-29T09:06:39Z</time>
      </trkpt>
      <trkpt lat="44.18516" lon="7.48301">
        <ele>1992.95</ele>
        <time>2020-01-29T09:06:52Z</time>
      </trkpt>
      <trkpt lat="44.18517" lon="7.4831">
        <ele>1994.39</ele>
        <time>2020-01-29T09:07:04Z</time>
      </trkpt>
      <trkpt lat="44.18514" lon="7.48316">
        <ele>1995.83</ele>
        <time>2020-01-29T09:07:17Z</time>
      </trkpt>
      <trkpt lat="44.18513" lon="7.48325">
        <ele>1999.2</ele>
        <time>2020-01-29T09:07:31Z</time>
      </trkpt>
      <trkpt lat="44.18514" lon="7.48335">
        <ele>2001.12</ele>
        <time>2020-01-29T09:07:44Z</time>
      </trkpt>
      <trkpt lat="44.18512" lon="7.48346">
        <ele>2001.6</ele>
        <time>2020-01-29T09:07:58Z</time>
      </trkpt>
      <trkpt lat="44.18512" lon="7.48353">
        <ele>2004.01</ele>
        <time>2020-01-29T09:08:12Z</time>
      </trkpt>
      <trkpt lat="44.18513" lon="7.48359">
        <ele>2004.01</ele>
        <time>2020-01-29T09:08:30Z</time>
      </trkpt>
      <trkpt lat="44.18512" lon="7.48364">
        <ele>2004.97</ele>
        <time>2020-01-29T09:08:57Z</time>
      </trkpt>
      <trkpt lat="44.18513" lon="7.48364">
        <ele>2006.41</ele>
        <time>2020-01-29T09:09:26Z</time>
      </trkpt>
      <trkpt lat="44.18508" lon="7.48373">
        <ele>2006.89</ele>
        <time>2020-01-29T09:09:41Z</time>
      </trkpt>
      <trkpt lat="44.18502" lon="7.48378">
        <ele>2008.81</ele>
        <time>2020-01-29T09:09:56Z</time>
      </trkpt>
      <trkpt lat="44.18497" lon="7.4838">
        <ele>2011.22</ele>
        <time>2020-01-29T09:10:08Z</time>
      </trkpt>
      <trkpt lat="44.18494" lon="7.48379">
        <ele>2013.14</ele>
        <time>2020-01-29T09:10:24Z</time>
      </trkpt>
      <trkpt lat="44.18495" lon="7.48379">
        <ele>2015.06</ele>
        <time>2020-01-29T09:10:53Z</time>
      </trkpt>
      <trkpt lat="44.18494" lon="7.48379">
        <ele>2014.58</ele>
        <time>2020-01-29T09:11:19Z</time>
      </trkpt>
      <trkpt lat="44.18492" lon="7.48377">
        <ele>2012.66</ele>
        <time>2020-01-29T09:11:48Z</time>
      </trkpt>
      <trkpt lat="44.18488" lon="7.48378">
        <ele>2013.62</ele>
        <time>2020-01-29T09:12:03Z</time>
      </trkpt>
      <trkpt lat="44.18484" lon="7.48378">
        <ele>2014.1</ele>
        <time>2020-01-29T09:12:18Z</time>
      </trkpt>
      <trkpt lat="44.18487" lon="7.48373">
        <ele>2018.91</ele>
        <time>2020-01-29T09:12:33Z</time>
      </trkpt>
      <trkpt lat="44.18486" lon="7.48366">
        <ele>2018.43</ele>
        <time>2020-01-29T09:12:46Z</time>
      </trkpt>
      <trkpt lat="44.18483" lon="7.48365">
        <ele>2018.43</ele>
        <time>2020-01-29T09:13:02Z</time>
      </trkpt>
      <trkpt lat="44.18484" lon="7.48365">
        <ele>2021.31</ele>
        <time>2020-01-29T09:13:32Z</time>
      </trkpt>
      <trkpt lat="44.18483" lon="7.48365">
        <ele>2024.67</ele>
        <time>2020-01-29T09:13:57Z</time>
      </trkpt>
      <trkpt lat="44.18482" lon="7.48367">
        <ele>2027.56</ele>
        <time>2020-01-29T09:14:38Z</time>
      </trkpt>
      <trkpt lat="44.18482" lon="7.48364">
        <ele>2023.23</ele>
        <time>2020-01-29T09:15:03Z</time>
      </trkpt>
      <trkpt lat="44.18481" lon="7.48362">
        <ele>2024.19</ele>
        <time>2020-01-29T09:15:21Z</time>
      </trkpt>
      <trkpt lat="44.18482" lon="7.4836">
        <ele>2027.08</ele>
        <time>2020-01-29T09:15:32Z</time>
      </trkpt>
      <trkpt lat="44.18483" lon="7.48353">
        <ele>2029.48</ele>
        <time>2020-01-29T09:15:46Z</time>
      </trkpt>
      <trkpt lat="44.18481" lon="7.48351">
        <ele>2030.92</ele>
        <time>2020-01-29T09:15:59Z</time>
      </trkpt>
      <trkpt lat="44.18473" lon="7.48351">
        <ele>2032.36</ele>
        <time>2020-01-29T09:16:15Z</time>
      </trkpt>
      <trkpt lat="44.18471" lon="7.48352">
        <ele>2033.33</ele>
        <time>2020-01-29T09:16:27Z</time>
      </trkpt>
      <trkpt lat="44.18474" lon="7.48349">
        <ele>2035.25</ele>
        <time>2020-01-29T09:16:43Z</time>
      </trkpt>
      <trkpt lat="44.18475" lon="7.48349">
        <ele>2035.73</ele>
        <time>2020-01-29T09:16:58Z</time>
      </trkpt>
      <trkpt lat="44.18475" lon="7.48346">
        <ele>2035.73</ele>
        <time>2020-01-29T09:17:16Z</time>
      </trkpt>
      <trkpt lat="44.1847" lon="7.48346">
        <ele>2035.73</ele>
        <time>2020-01-29T09:17:29Z</time>
      </trkpt>
      <trkpt lat="44.18468" lon="7.48346">
        <ele>2036.69</ele>
        <time>2020-01-29T09:17:50Z</time>
      </trkpt>
      <trkpt lat="44.1847" lon="7.48341">
        <ele>2038.13</ele>
        <time>2020-01-29T09:18:03Z</time>
      </trkpt>
      <trkpt lat="44.18466" lon="7.48341">
        <ele>2038.61</ele>
        <time>2020-01-29T09:18:17Z</time>
      </trkpt>
      <trkpt lat="44.18465" lon="7.4834">
        <ele>2038.61</ele>
        <time>2020-01-29T09:18:30Z</time>
      </trkpt>
      <trkpt lat="44.18462" lon="7.48339">
        <ele>2037.65</ele>
        <time>2020-01-29T09:18:44Z</time>
      </trkpt>
      <trkpt lat="44.18463" lon="7.48337">
        <ele>2039.09</ele>
        <time>2020-01-29T09:18:55Z</time>
      </trkpt>
      <trkpt lat="44.18464" lon="7.48335">
        <ele>2041.98</ele>
        <time>2020-01-29T09:19:11Z</time>
      </trkpt>
      <trkpt lat="44.18463" lon="7.48333">
        <ele>2040.54</ele>
        <time>2020-01-29T09:19:29Z</time>
      </trkpt>
      <trkpt lat="44.18463" lon="7.48332">
        <ele>2041.02</ele>
        <time>2020-01-29T09:19:47Z</time>
      </trkpt>
      <trkpt lat="44.18463" lon="7.48333">
        <ele>2042.46</ele>
        <time>2020-01-29T09:20:04Z</time>
      </trkpt>
      <trkpt lat="44.1846" lon="7.48335">
        <ele>2043.42</ele>
        <time>2020-01-29T09:20:19Z</time>
      </trkpt>
      <trkpt lat="44.18462" lon="7.48329">
        <ele>2047.75</ele>
        <time>2020-01-29T09:20:38Z</time>
      </trkpt>
      <trkpt lat="44.18461" lon="7.48326">
        <ele>2048.23</ele>
        <time>2020-01-29T09:20:55Z</time>
      </trkpt>
      <trkpt lat="44.18454" lon="7.48326">
        <ele>2049.67</ele>
        <time>2020-01-29T09:21:08Z</time>
      </trkpt>
      <trkpt lat="44.18445" lon="7.48329">
        <ele>2052.07</ele>
        <time>2020-01-29T09:21:28Z</time>
      </trkpt>
      <trkpt lat="44.18438" lon="7.48325">
        <ele>2053.99</ele>
        <time>2020-01-29T09:21:44Z</time>
      </trkpt>
      <trkpt lat="44.18429" lon="7.4832">
        <ele>2056.88</ele>
        <time>2020-01-29T09:22:00Z</time>
      </trkpt>
      <trkpt lat="44.18425" lon="7.48318">
        <ele>2059.28</ele>
        <time>2020-01-29T09:22:14Z</time>
      </trkpt>
      <trkpt lat="44.18422" lon="7.48315">
        <ele>2059.76</ele>
        <time>2020-01-29T09:22:27Z</time>
      </trkpt>
      <trkpt lat="44.18421" lon="7.48312">
        <ele>2061.68</ele>
        <time>2020-01-29T09:22:42Z</time>
      </trkpt>
      <trkpt lat="44.18426" lon="7.48306">
        <ele>2063.61</ele>
        <time>2020-01-29T09:22:56Z</time>
      </trkpt>
      <trkpt lat="44.1843" lon="7.48301">
        <ele>2064.09</ele>
        <time>2020-01-29T09:23:10Z</time>
      </trkpt>
      <trkpt lat="44.18426" lon="7.48299">
        <ele>2065.53</ele>
        <time>2020-01-29T09:23:22Z</time>
      </trkpt>
      <trkpt lat="44.18424" lon="7.483">
        <ele>2069.38</ele>
        <time>2020-01-29T09:23:42Z</time>
      </trkpt>
      <trkpt lat="44.18421" lon="7.48296">
        <ele>2069.38</ele>
        <time>2020-01-29T09:24:08Z</time>
      </trkpt>
      <trkpt lat="44.18415" lon="7.48291">
        <ele>2071.3</ele>
        <time>2020-01-29T09:24:24Z</time>
      </trkpt>
      <trkpt lat="44.18409" lon="7.48285">
        <ele>2071.78</ele>
        <time>2020-01-29T09:24:37Z</time>
      </trkpt>
      <trkpt lat="44.18401" lon="7.48276">
        <ele>2072.74</ele>
        <time>2020-01-29T09:24:56Z</time>
      </trkpt>
      <trkpt lat="44.18393" lon="7.4827">
        <ele>2073.22</ele>
        <time>2020-01-29T09:25:10Z</time>
      </trkpt>
      <trkpt lat="44.18387" lon="7.48259">
        <ele>2074.18</ele>
        <time>2020-01-29T09:25:34Z</time>
      </trkpt>
      <trkpt lat="44.18381" lon="7.4825">
        <ele>2075.62</ele>
        <time>2020-01-29T09:25:48Z</time>
      </trkpt>
      <trkpt lat="44.18375" lon="7.48243">
        <ele>2078.03</ele>
        <time>2020-01-29T09:26:02Z</time>
      </trkpt>
      <trkpt lat="44.18369" lon="7.48239">
        <ele>2078.99</ele>
        <time>2020-01-29T09:26:20Z</time>
      </trkpt>
      <trkpt lat="44.1837" lon="7.48237">
        <ele>2080.91</ele>
        <time>2020-01-29T09:26:33Z</time>
      </trkpt>
      <trkpt lat="44.18375" lon="7.48232">
        <ele>2083.79</ele>
        <time>2020-01-29T09:26:46Z</time>
      </trkpt>
      <trkpt lat="44.18374" lon="7.48228">
        <ele>2084.28</ele>
        <time>2020-01-29T09:26:57Z</time>
      </trkpt>
      <trkpt lat="44.18368" lon="7.48221">
        <ele>2085.72</ele>
        <time>2020-01-29T09:27:10Z</time>
      </trkpt>
      <trkpt lat="44.18363" lon="7.48215">
        <ele>2088.6</ele>
        <time>2020-01-29T09:27:24Z</time>
      </trkpt>
      <trkpt lat="44.18358" lon="7.48211">
        <ele>2092.45</ele>
        <time>2020-01-29T09:27:35Z</time>
      </trkpt>
      <trkpt lat="44.18352" lon="7.48207">
        <ele>2093.89</ele>
        <time>2020-01-29T09:27:49Z</time>
      </trkpt>
      <trkpt lat="44.1835" lon="7.48205">
        <ele>2093.89</ele>
        <time>2020-01-29T09:28:04Z</time>
      </trkpt>
      <trkpt lat="44.18344" lon="7.482">
        <ele>2094.85</ele>
        <time>2020-01-29T09:28:19Z</time>
      </trkpt>
      <trkpt lat="44.18336" lon="7.48197">
        <ele>2097.73</ele>
        <time>2020-01-29T09:28:39Z</time>
      </trkpt>
      <trkpt lat="44.18329" lon="7.48192">
        <ele>2099.66</ele>
        <time>2020-01-29T09:28:54Z</time>
      </trkpt>
      <trkpt lat="44.18329" lon="7.48187">
        <ele>2103.5</ele>
        <time>2020-01-29T09:29:10Z</time>
      </trkpt>
      <trkpt lat="44.18329" lon="7.48181">
        <ele>2104.46</ele>
        <time>2020-01-29T09:29:25Z</time>
      </trkpt>
      <trkpt lat="44.18327" lon="7.48173">
        <ele>2105.91</ele>
        <time>2020-01-29T09:29:39Z</time>
      </trkpt>
      <trkpt lat="44.18327" lon="7.48172">
        <ele>2104.46</ele>
        <time>2020-01-29T09:30:10Z</time>
      </trkpt>
      <trkpt lat="44.18328" lon="7.48172">
        <ele>2105.42</ele>
        <time>2020-01-29T09:30:31Z</time>
      </trkpt>
      <trkpt lat="44.18324" lon="7.4817">
        <ele>2103.98</ele>
        <time>2020-01-29T09:30:45Z</time>
      </trkpt>
      <trkpt lat="44.18321" lon="7.48169">
        <ele>2105.42</ele>
        <time>2020-01-29T09:31:01Z</time>
      </trkpt>
      <trkpt lat="44.18316" lon="7.48177">
        <ele>2106.39</ele>
        <time>2020-01-29T09:31:17Z</time>
      </trkpt>
      <trkpt lat="44.18311" lon="7.48177">
        <ele>2108.31</ele>
        <time>2020-01-29T09:31:30Z</time>
      </trkpt>
      <trkpt lat="44.18309" lon="7.48175">
        <ele>2110.71</ele>
        <time>2020-01-29T09:31:46Z</time>
      </trkpt>
      <trkpt lat="44.18304" lon="7.48179">
        <ele>2112.63</ele>
        <time>2020-01-29T09:32:03Z</time>
      </trkpt>
      <trkpt lat="44.18298" lon="7.48182">
        <ele>2114.08</ele>
        <time>2020-01-29T09:32:15Z</time>
      </trkpt>
      <trkpt lat="44.18295" lon="7.48185">
        <ele>2115.04</ele>
        <time>2020-01-29T09:32:29Z</time>
      </trkpt>
      <trkpt lat="44.18294" lon="7.48182">
        <ele>2116.96</ele>
        <time>2020-01-29T09:32:43Z</time>
      </trkpt>
      <trkpt lat="44.18292" lon="7.48172">
        <ele>2118.4</ele>
        <time>2020-01-29T09:32:58Z</time>
      </trkpt>
      <trkpt lat="44.18286" lon="7.48172">
        <ele>2119.84</ele>
        <time>2020-01-29T09:33:09Z</time>
      </trkpt>
      <trkpt lat="44.18281" lon="7.48174">
        <ele>2123.21</ele>
        <time>2020-01-29T09:33:22Z</time>
      </trkpt>
      <trkpt lat="44.18274" lon="7.48176">
        <ele>2125.13</ele>
        <time>2020-01-29T09:33:36Z</time>
      </trkpt>
      <trkpt lat="44.18268" lon="7.48176">
        <ele>2128.02</ele>
        <time>2020-01-29T09:33:49Z</time>
      </trkpt>
      <trkpt lat="44.18261" lon="7.48178">
        <ele>2129.94</ele>
        <time>2020-01-29T09:34:04Z</time>
      </trkpt>
      <trkpt lat="44.18254" lon="7.48178">
        <ele>2131.86</ele>
        <time>2020-01-29T09:34:17Z</time>
      </trkpt>
      <trkpt lat="44.18248" lon="7.48179">
        <ele>2134.26</ele>
        <time>2020-01-29T09:34:36Z</time>
      </trkpt>
      <trkpt lat="44.18243" lon="7.48179">
        <ele>2134.74</ele>
        <time>2020-01-29T09:34:48Z</time>
      </trkpt>
      <trkpt lat="44.18245" lon="7.48177">
        <ele>2137.15</ele>
        <time>2020-01-29T09:35:09Z</time>
      </trkpt>
      <trkpt lat="44.1825" lon="7.4817">
        <ele>2138.11</ele>
        <time>2020-01-29T09:35:23Z</time>
      </trkpt>
      <trkpt lat="44.18245" lon="7.4817">
        <ele>2138.11</ele>
        <time>2020-01-29T09:35:38Z</time>
      </trkpt>
      <trkpt lat="44.18239" lon="7.48169">
        <ele>2140.51</ele>
        <time>2020-01-29T09:35:53Z</time>
      </trkpt>
      <trkpt lat="44.18237" lon="7.48168">
        <ele>2141.95</ele>
        <time>2020-01-29T09:36:04Z</time>
      </trkpt>
      <trkpt lat="44.18242" lon="7.48162">
        <ele>2143.4</ele>
        <time>2020-01-29T09:36:16Z</time>
      </trkpt>
      <trkpt lat="44.18245" lon="7.48156">
        <ele>2145.32</ele>
        <time>2020-01-29T09:36:30Z</time>
      </trkpt>
      <trkpt lat="44.18245" lon="7.48154">
        <ele>2144.36</ele>
        <time>2020-01-29T09:36:43Z</time>
      </trkpt>
      <trkpt lat="44.18241" lon="7.48155">
        <ele>2144.84</ele>
        <time>2020-01-29T09:36:58Z</time>
      </trkpt>
      <trkpt lat="44.18235" lon="7.48156">
        <ele>2148.2</ele>
        <time>2020-01-29T09:37:13Z</time>
      </trkpt>
      <trkpt lat="44.18228" lon="7.48156">
        <ele>2149.65</ele>
        <time>2020-01-29T09:37:26Z</time>
      </trkpt>
      <trkpt lat="44.18223" lon="7.48156">
        <ele>2153.01</ele>
        <time>2020-01-29T09:37:40Z</time>
      </trkpt>
      <trkpt lat="44.18217" lon="7.48155">
        <ele>2155.41</ele>
        <time>2020-01-29T09:37:52Z</time>
      </trkpt>
      <trkpt lat="44.18212" lon="7.48156">
        <ele>2157.82</ele>
        <time>2020-01-29T09:38:06Z</time>
      </trkpt>
      <trkpt lat="44.18205" lon="7.48155">
        <ele>2160.22</ele>
        <time>2020-01-29T09:38:20Z</time>
      </trkpt>
      <trkpt lat="44.182" lon="7.48153">
        <ele>2160.7</ele>
        <time>2020-01-29T09:38:32Z</time>
      </trkpt>
      <trkpt lat="44.18195" lon="7.4815">
        <ele>2163.1</ele>
        <time>2020-01-29T09:38:43Z</time>
      </trkpt>
      <trkpt lat="44.1819" lon="7.48147">
        <ele>2164.06</ele>
        <time>2020-01-29T09:39:01Z</time>
      </trkpt>
      <trkpt lat="44.18183" lon="7.48143">
        <ele>2165.51</ele>
        <time>2020-01-29T09:39:14Z</time>
      </trkpt>
      <trkpt lat="44.18177" lon="7.48138">
        <ele>2166.47</ele>
        <time>2020-01-29T09:39:27Z</time>
      </trkpt>
      <trkpt lat="44.18171" lon="7.48132">
        <ele>2169.83</ele>
        <time>2020-01-29T09:39:44Z</time>
      </trkpt>
      <trkpt lat="44.18166" lon="7.48126">
        <ele>2171.76</ele>
        <time>2020-01-29T09:39:57Z</time>
      </trkpt>
      <trkpt lat="44.18159" lon="7.48122">
        <ele>2175.12</ele>
        <time>2020-01-29T09:40:10Z</time>
      </trkpt>
      <trkpt lat="44.18152" lon="7.48115">
        <ele>2177.04</ele>
        <time>2020-01-29T09:40:24Z</time>
      </trkpt>
      <trkpt lat="44.18148" lon="7.4811">
        <ele>2178</ele>
        <time>2020-01-29T09:40:36Z</time>
      </trkpt>
      <trkpt lat="44.18145" lon="7.48104">
        <ele>2178.48</ele>
        <time>2020-01-29T09:40:49Z</time>
      </trkpt>
      <trkpt lat="44.18147" lon="7.48103">
        <ele>2180.41</ele>
        <time>2020-01-29T09:41:03Z</time>
      </trkpt>
      <trkpt lat="44.1815" lon="7.48099">
        <ele>2181.85</ele>
        <time>2020-01-29T09:41:15Z</time>
      </trkpt>
      <trkpt lat="44.18157" lon="7.48097">
        <ele>2182.33</ele>
        <time>2020-01-29T09:41:29Z</time>
      </trkpt>
      <trkpt lat="44.18161" lon="7.48094">
        <ele>2183.77</ele>
        <time>2020-01-29T09:41:42Z</time>
      </trkpt>
      <trkpt lat="44.18166" lon="7.4809">
        <ele>2185.21</ele>
        <time>2020-01-29T09:41:53Z</time>
      </trkpt>
      <trkpt lat="44.18169" lon="7.48088">
        <ele>2187.14</ele>
        <time>2020-01-29T09:42:08Z</time>
      </trkpt>
      <trkpt lat="44.18166" lon="7.48083">
        <ele>2185.69</ele>
        <time>2020-01-29T09:42:20Z</time>
      </trkpt>
      <trkpt lat="44.18161" lon="7.48074">
        <ele>2188.58</ele>
        <time>2020-01-29T09:42:38Z</time>
      </trkpt>
      <trkpt lat="44.18155" lon="7.48068">
        <ele>2190.5</ele>
        <time>2020-01-29T09:42:52Z</time>
      </trkpt>
      <trkpt lat="44.1815" lon="7.48061">
        <ele>2192.9</ele>
        <time>2020-01-29T09:43:07Z</time>
      </trkpt>
      <trkpt lat="44.18148" lon="7.48058">
        <ele>2194.83</ele>
        <time>2020-01-29T09:43:23Z</time>
      </trkpt>
      <trkpt lat="44.18153" lon="7.48052">
        <ele>2196.27</ele>
        <time>2020-01-29T09:43:37Z</time>
      </trkpt>
      <trkpt lat="44.1816" lon="7.48046">
        <ele>2195.31</ele>
        <time>2020-01-29T09:43:52Z</time>
      </trkpt>
      <trkpt lat="44.18159" lon="7.48041">
        <ele>2196.75</ele>
        <time>2020-01-29T09:44:05Z</time>
      </trkpt>
      <trkpt lat="44.18158" lon="7.48039">
        <ele>2199.15</ele>
        <time>2020-01-29T09:44:27Z</time>
      </trkpt>
      <trkpt lat="44.18153" lon="7.4804">
        <ele>2202.52</ele>
        <time>2020-01-29T09:44:39Z</time>
      </trkpt>
      <trkpt lat="44.18148" lon="7.48041">
        <ele>2203.96</ele>
        <time>2020-01-29T09:44:56Z</time>
      </trkpt>
      <trkpt lat="44.18143" lon="7.4804">
        <ele>2206.84</ele>
        <time>2020-01-29T09:45:08Z</time>
      </trkpt>
      <trkpt lat="44.1814" lon="7.4804">
        <ele>2207.81</ele>
        <time>2020-01-29T09:45:23Z</time>
      </trkpt>
      <trkpt lat="44.18141" lon="7.4804">
        <ele>2206.36</ele>
        <time>2020-01-29T09:45:49Z</time>
      </trkpt>
      <trkpt lat="44.18144" lon="7.48036">
        <ele>2208.29</ele>
        <time>2020-01-29T09:46:04Z</time>
      </trkpt>
      <trkpt lat="44.18145" lon="7.48034">
        <ele>2209.25</ele>
        <time>2020-01-29T09:46:19Z</time>
      </trkpt>
      <trkpt lat="44.18145" lon="7.48032">
        <ele>2208.29</ele>
        <time>2020-01-29T09:46:41Z</time>
      </trkpt>
      <trkpt lat="44.18145" lon="7.48029">
        <ele>2205.4</ele>
        <time>2020-01-29T09:47:13Z</time>
      </trkpt>
      <trkpt lat="44.18147" lon="7.48033">
        <ele>2205.88</ele>
        <time>2020-01-29T09:47:47Z</time>
      </trkpt>
      <trkpt lat="44.18148" lon="7.48032">
        <ele>2203</ele>
        <time>2020-01-29T09:48:17Z</time>
      </trkpt>
      <trkpt lat="44.18148" lon="7.48031">
        <ele>2205.88</ele>
        <time>2020-01-29T09:48:35Z</time>
      </trkpt>
      <trkpt lat="44.18146" lon="7.4803">
        <ele>2208.29</ele>
        <time>2020-01-29T09:48:56Z</time>
      </trkpt>
      <trkpt lat="44.18148" lon="7.48028">
        <ele>2209.73</ele>
        <time>2020-01-29T09:49:18Z</time>
      </trkpt>
      <trkpt lat="44.18148" lon="7.48027">
        <ele>2209.25</ele>
        <time>2020-01-29T09:49:39Z</time>
      </trkpt>
      <trkpt lat="44.18146" lon="7.48029">
        <ele>2208.77</ele>
        <time>2020-01-29T09:49:56Z</time>
      </trkpt>
      <trkpt lat="44.18141" lon="7.48029">
        <ele>2209.25</ele>
        <time>2020-01-29T09:50:16Z</time>
      </trkpt>
      <trkpt lat="44.18137" lon="7.4803">
        <ele>2211.17</ele>
        <time>2020-01-29T09:50:31Z</time>
      </trkpt>
      <trkpt lat="44.18133" lon="7.48031">
        <ele>2212.13</ele>
        <time>2020-01-29T09:50:48Z</time>
      </trkpt>
      <trkpt lat="44.18132" lon="7.48029">
        <ele>2213.57</ele>
        <time>2020-01-29T09:51:02Z</time>
      </trkpt>
      <trkpt lat="44.18128" lon="7.4803">
        <ele>2215.01</ele>
        <time>2020-01-29T09:51:16Z</time>
      </trkpt>
      <trkpt lat="44.1813" lon="7.48028">
        <ele>2216.94</ele>
        <time>2020-01-29T09:51:33Z</time>
      </trkpt>
      <trkpt lat="44.18134" lon="7.48023">
        <ele>2218.38</ele>
        <time>2020-01-29T09:51:46Z</time>
      </trkpt>
      <trkpt lat="44.18134" lon="7.4802">
        <ele>2218.86</ele>
        <time>2020-01-29T09:52:03Z</time>
      </trkpt>
      <trkpt lat="44.18135" lon="7.4802">
        <ele>2218.86</ele>
        <time>2020-01-29T09:52:22Z</time>
      </trkpt>
      <trkpt lat="44.18135" lon="7.48019">
        <ele>2221.26</ele>
        <time>2020-01-29T09:52:39Z</time>
      </trkpt>
      <trkpt lat="44.18135" lon="7.48017">
        <ele>2222.22</ele>
        <time>2020-01-29T09:52:56Z</time>
      </trkpt>
      <trkpt lat="44.18135" lon="7.48013">
        <ele>2221.26</ele>
        <time>2020-01-29T09:53:09Z</time>
      </trkpt>
      <trkpt lat="44.18132" lon="7.48014">
        <ele>2221.26</ele>
        <time>2020-01-29T09:53:24Z</time>
      </trkpt>
      <trkpt lat="44.18127" lon="7.48015">
        <ele>2222.71</ele>
        <time>2020-01-29T09:53:45Z</time>
      </trkpt>
      <trkpt lat="44.18127" lon="7.48016">
        <ele>2222.71</ele>
        <time>2020-01-29T09:54:08Z</time>
      </trkpt>
      <trkpt lat="44.18126" lon="7.48017">
        <ele>2221.26</ele>
        <time>2020-01-29T09:54:28Z</time>
      </trkpt>
      <trkpt lat="44.18126" lon="7.48015">
        <ele>2219.34</ele>
        <time>2020-01-29T09:54:57Z</time>
      </trkpt>
      <trkpt lat="44.18126" lon="7.48016">
        <ele>2220.78</ele>
        <time>2020-01-29T09:55:13Z</time>
      </trkpt>
      <trkpt lat="44.18126" lon="7.48017">
        <ele>2221.26</ele>
        <time>2020-01-29T09:55:30Z</time>
      </trkpt>
      <trkpt lat="44.18127" lon="7.48016">
        <ele>2222.71</ele>
        <time>2020-01-29T09:55:47Z</time>
      </trkpt>
      <trkpt lat="44.18124" lon="7.48017">
        <ele>2222.22</ele>
        <time>2020-01-29T09:56:12Z</time>
      </trkpt>
      <trkpt lat="44.18125" lon="7.48016">
        <ele>2221.74</ele>
        <time>2020-01-29T09:56:32Z</time>
      </trkpt>
      <trkpt lat="44.18125" lon="7.48015">
        <ele>2221.26</ele>
        <time>2020-01-29T09:56:55Z</time>
      </trkpt>
      <trkpt lat="44.18126" lon="7.48016">
        <ele>2219.82</ele>
        <time>2020-01-29T09:57:21Z</time>
      </trkpt>
      <trkpt lat="44.18126" lon="7.48016">
        <ele>2220.3</ele>
        <time>2020-01-29T09:57:39Z</time>
      </trkpt>
      <trkpt lat="44.18126" lon="7.48016">
        <ele>2220.78</ele>
        <time>2020-01-29T09:58:02Z</time>
      </trkpt>
      <trkpt lat="44.18126" lon="7.48012">
        <ele>2219.82</ele>
        <time>2020-01-29T09:58:22Z</time>
      </trkpt>
      <trkpt lat="44.18125" lon="7.48012">
        <ele>2220.3</ele>
        <time>2020-01-29T09:58:44Z</time>
      </trkpt>
      <trkpt lat="44.18124" lon="7.48014">
        <ele>2223.19</ele>
        <time>2020-01-29T09:59:17Z</time>
      </trkpt>
      <trkpt lat="44.18125" lon="7.48015">
        <ele>2223.19</ele>
        <time>2020-01-29T09:59:37Z</time>
      </trkpt>
      <trkpt lat="44.18126" lon="7.48015">
        <ele>2223.19</ele>
        <time>2020-01-29T09:59:57Z</time>
      </trkpt>
      <trkpt lat="44.18128" lon="7.48017">
        <ele>2226.07</ele>
        <time>2020-01-29T10:00:36Z</time>
      </trkpt>
      <trkpt lat="44.1813" lon="7.48015">
        <ele>2227.99</ele>
        <time>2020-01-29T10:01:14Z</time>
      </trkpt>
      <trkpt lat="44.1813" lon="7.48016">
        <ele>2232.32</ele>
        <time>2020-01-29T10:01:51Z</time>
      </trkpt>
      <trkpt lat="44.18129" lon="7.48016">
        <ele>2234.24</ele>
        <time>2020-01-29T10:02:32Z</time>
      </trkpt>
      <trkpt lat="44.1813" lon="7.48016">
        <ele>2235.2</ele>
        <time>2020-01-29T10:03:05Z</time>
      </trkpt>
      <trkpt lat="44.1813" lon="7.48018">
        <ele>2230.88</ele>
        <time>2020-01-29T10:03:34Z</time>
      </trkpt>
      <trkpt lat="44.18131" lon="7.48019">
        <ele>2229.43</ele>
        <time>2020-01-29T10:04:07Z</time>
      </trkpt>
      <trkpt lat="44.18131" lon="7.48018">
        <ele>2228.95</ele>
        <time>2020-01-29T10:04:42Z</time>
      </trkpt>
      <trkpt lat="44.1813" lon="7.48015">
        <ele>2231.36</ele>
        <time>2020-01-29T10:05:06Z</time>
      </trkpt>
      <trkpt lat="44.18132" lon="7.48014">
        <ele>2233.76</ele>
        <time>2020-01-29T10:05:42Z</time>
      </trkpt>
      <trkpt lat="44.18132" lon="7.48015">
        <ele>2232.32</ele>
        <time>2020-01-29T10:06:16Z</time>
      </trkpt>
      <trkpt lat="44.1813" lon="7.48015">
        <ele>2232.32</ele>
        <time>2020-01-29T10:06:40Z</time>
      </trkpt>
      <trkpt lat="44.1813" lon="7.48013">
        <ele>2231.36</ele>
        <time>2020-01-29T10:07:05Z</time>
      </trkpt>
      <trkpt lat="44.18131" lon="7.48013">
        <ele>2230.88</ele>
        <time>2020-01-29T10:07:30Z</time>
      </trkpt>
      <trkpt lat="44.1813" lon="7.48013">
        <ele>2227.99</ele>
        <time>2020-01-29T10:08:02Z</time>
      </trkpt>
      <trkpt lat="44.1813" lon="7.48014">
        <ele>2228.95</ele>
        <time>2020-01-29T10:08:27Z</time>
      </trkpt>
      <trkpt lat="44.18127" lon="7.48015">
        <ele>2229.43</ele>
        <time>2020-01-29T10:08:46Z</time>
      </trkpt>
      <trkpt lat="44.18127" lon="7.48015">
        <ele>2229.43</ele>
        <time>2020-01-29T10:09:03Z</time>
      </trkpt>
      <trkpt lat="44.18127" lon="7.48015">
        <ele>2228.95</ele>
        <time>2020-01-29T10:09:21Z</time>
      </trkpt>
      <trkpt lat="44.18126" lon="7.48015">
        <ele>2230.4</ele>
        <time>2020-01-29T10:09:41Z</time>
      </trkpt>
      <trkpt lat="44.18127" lon="7.48015">
        <ele>2229.92</ele>
        <time>2020-01-29T10:09:59Z</time>
      </trkpt>
      <trkpt lat="44.18127" lon="7.48014">
        <ele>2229.43</ele>
        <time>2020-01-29T10:10:26Z</time>
      </trkpt>
      <trkpt lat="44.18127" lon="7.48013">
        <ele>2229.92</ele>
        <time>2020-01-29T10:10:51Z</time>
      </trkpt>
      <trkpt lat="44.18127" lon="7.48017">
        <ele>2228.47</ele>
        <time>2020-01-29T10:11:13Z</time>
      </trkpt>
      <trkpt lat="44.18126" lon="7.48016">
        <ele>2228.95</ele>
        <time>2020-01-29T10:11:28Z</time>
      </trkpt>
      <trkpt lat="44.18126" lon="7.48016">
        <ele>2229.92</ele>
        <time>2020-01-29T10:11:48Z</time>
      </trkpt>
      <trkpt lat="44.18127" lon="7.48016">
        <ele>2229.43</ele>
        <time>2020-01-29T10:12:01Z</time>
      </trkpt>
      <trkpt lat="44.18128" lon="7.48017">
        <ele>2229.92</ele>
        <time>2020-01-29T10:12:26Z</time>
      </trkpt>
      <trkpt lat="44.18128" lon="7.48015">
        <ele>2230.4</ele>
        <time>2020-01-29T10:12:49Z</time>
      </trkpt>
      <trkpt lat="44.18128" lon="7.48013">
        <ele>2229.92</ele>
        <time>2020-01-29T10:13:14Z</time>
      </trkpt>
      <trkpt lat="44.18127" lon="7.48012">
        <ele>2228.95</ele>
        <time>2020-01-29T10:13:39Z</time>
      </trkpt>
      <trkpt lat="44.18126" lon="7.48014">
        <ele>2230.4</ele>
        <time>2020-01-29T10:14:04Z</time>
      </trkpt>
      <trkpt lat="44.18126" lon="7.48013">
        <ele>2229.92</ele>
        <time>2020-01-29T10:14:22Z</time>
      </trkpt>
      <trkpt lat="44.18127" lon="7.48013">
        <ele>2231.36</ele>
        <time>2020-01-29T10:14:44Z</time>
      </trkpt>
      <trkpt lat="44.18127" lon="7.48015">
        <ele>2231.84</ele>
        <time>2020-01-29T10:15:02Z</time>
      </trkpt>
      <trkpt lat="44.18128" lon="7.48015">
        <ele>2230.88</ele>
        <time>2020-01-29T10:15:28Z</time>
      </trkpt>
      <trkpt lat="44.18128" lon="7.48014">
        <ele>2229.92</ele>
        <time>2020-01-29T10:15:54Z</time>
      </trkpt>
      <trkpt lat="44.18127" lon="7.48015">
        <ele>2229.92</ele>
        <time>2020-01-29T10:16:09Z</time>
      </trkpt>
      <trkpt lat="44.18128" lon="7.48015">
        <ele>2229.92</ele>
        <time>2020-01-29T10:16:23Z</time>
      </trkpt>
      <trkpt lat="44.18128" lon="7.48015">
        <ele>2228.95</ele>
        <time>2020-01-29T10:16:41Z</time>
      </trkpt>
      <trkpt lat="44.18128" lon="7.48015">
        <ele>2228.95</ele>
        <time>2020-01-29T10:17:05Z</time>
      </trkpt>
      <trkpt lat="44.18127" lon="7.48014">
        <ele>2227.51</ele>
        <time>2020-01-29T10:17:20Z</time>
      </trkpt>
      <trkpt lat="44.18128" lon="7.48013">
        <ele>2227.03</ele>
        <time>2020-01-29T10:17:38Z</time>
      </trkpt>
      <trkpt lat="44.18129" lon="7.48013">
        <ele>2227.03</ele>
        <time>2020-01-29T10:17:57Z</time>
      </trkpt>
      <trkpt lat="44.18129" lon="7.48013">
        <ele>2227.99</ele>
        <time>2020-01-29T10:18:23Z</time>
      </trkpt>
      <trkpt lat="44.18129" lon="7.48015">
        <ele>2230.88</ele>
        <time>2020-01-29T10:18:43Z</time>
      </trkpt>
      <trkpt lat="44.18129" lon="7.48014">
        <ele>2230.88</ele>
        <time>2020-01-29T10:19:01Z</time>
      </trkpt>
      <trkpt lat="44.18131" lon="7.48015">
        <ele>2231.84</ele>
        <time>2020-01-29T10:19:26Z</time>
      </trkpt>
      <trkpt lat="44.1813" lon="7.48014">
        <ele>2230.88</ele>
        <time>2020-01-29T10:19:45Z</time>
      </trkpt>
      <trkpt lat="44.18129" lon="7.48016">
        <ele>2229.92</ele>
        <time>2020-01-29T10:19:59Z</time>
      </trkpt>
      <trkpt lat="44.18135" lon="7.48017">
        <ele>2227.99</ele>
        <time>2020-01-29T10:20:12Z</time>
      </trkpt>
      <trkpt lat="44.18135" lon="7.4802">
        <ele>2227.03</ele>
        <time>2020-01-29T10:20:26Z</time>
      </trkpt>
      <trkpt lat="44.18134" lon="7.48024">
        <ele>2224.63</ele>
        <time>2020-01-29T10:20:38Z</time>
      </trkpt>
      <trkpt lat="44.18135" lon="7.48026">
        <ele>2224.15</ele>
        <time>2020-01-29T10:20:52Z</time>
      </trkpt>
      <trkpt lat="44.18136" lon="7.48026">
        <ele>2224.63</ele>
        <time>2020-01-29T10:21:09Z</time>
      </trkpt>
      <trkpt lat="44.18139" lon="7.48028">
        <ele>2223.67</ele>
        <time>2020-01-29T10:21:21Z</time>
      </trkpt>
      <trkpt lat="44.18139" lon="7.48029">
        <ele>2223.67</ele>
        <time>2020-01-29T10:21:24Z</time>
      </trkpt>
      <trkpt lat="44.18142" lon="7.4803">
        <ele>2222.71</ele>
        <time>2020-01-29T10:21:26Z</time>
      </trkpt>
      <trkpt lat="44.18143" lon="7.48035">
        <ele>2219.82</ele>
        <time>2020-01-29T10:21:35Z</time>
      </trkpt>
      <trkpt lat="44.1815" lon="7.48037">
        <ele>2214.53</ele>
        <time>2020-01-29T10:21:46Z</time>
      </trkpt>
      <trkpt lat="44.18158" lon="7.48036">
        <ele>2211.17</ele>
        <time>2020-01-29T10:22:02Z</time>
      </trkpt>
      <trkpt lat="44.18158" lon="7.48035">
        <ele>2210.21</ele>
        <time>2020-01-29T10:22:20Z</time>
      </trkpt>
      <trkpt lat="44.18161" lon="7.48035">
        <ele>2208.77</ele>
        <time>2020-01-29T10:22:28Z</time>
      </trkpt>
      <trkpt lat="44.18163" lon="7.48037">
        <ele>2207.81</ele>
        <time>2020-01-29T10:22:30Z</time>
      </trkpt>
      <trkpt lat="44.18154" lon="7.48054">
        <ele>2203</ele>
        <time>2020-01-29T10:22:42Z</time>
      </trkpt>
      <trkpt lat="44.18153" lon="7.48056">
        <ele>2202.04</ele>
        <time>2020-01-29T10:22:56Z</time>
      </trkpt>
      <trkpt lat="44.18151" lon="7.48059">
        <ele>2203</ele>
        <time>2020-01-29T10:23:05Z</time>
      </trkpt>
      <trkpt lat="44.1816" lon="7.48071">
        <ele>2200.59</ele>
        <time>2020-01-29T10:23:10Z</time>
      </trkpt>
      <trkpt lat="44.18155" lon="7.4808">
        <ele>2197.71</ele>
        <time>2020-01-29T10:23:16Z</time>
      </trkpt>
      <trkpt lat="44.1816" lon="7.48091">
        <ele>2193.87</ele>
        <time>2020-01-29T10:23:22Z</time>
      </trkpt>
      <trkpt lat="44.18152" lon="7.48098">
        <ele>2191.46</ele>
        <time>2020-01-29T10:23:29Z</time>
      </trkpt>
      <trkpt lat="44.18152" lon="7.48098">
        <ele>2191.94</ele>
        <time>2020-01-29T10:23:32Z</time>
      </trkpt>
      <trkpt lat="44.18152" lon="7.48104">
        <ele>2189.54</ele>
        <time>2020-01-29T10:23:39Z</time>
      </trkpt>
      <trkpt lat="44.18159" lon="7.48111">
        <ele>2187.14</ele>
        <time>2020-01-29T10:23:49Z</time>
      </trkpt>
      <trkpt lat="44.18178" lon="7.48122">
        <ele>2183.29</ele>
        <time>2020-01-29T10:24:00Z</time>
      </trkpt>
      <trkpt lat="44.18167" lon="7.48138">
        <ele>2181.85</ele>
        <time>2020-01-29T10:24:08Z</time>
      </trkpt>
      <trkpt lat="44.18178" lon="7.48147">
        <ele>2178.97</ele>
        <time>2020-01-29T10:24:15Z</time>
      </trkpt>
      <trkpt lat="44.18189" lon="7.4815">
        <ele>2178.97</ele>
        <time>2020-01-29T10:24:26Z</time>
      </trkpt>
      <trkpt lat="44.18188" lon="7.48149">
        <ele>2177.04</ele>
        <time>2020-01-29T10:24:35Z</time>
      </trkpt>
      <trkpt lat="44.18191" lon="7.48155">
        <ele>2173.68</ele>
        <time>2020-01-29T10:24:46Z</time>
      </trkpt>
      <trkpt lat="44.18197" lon="7.48159">
        <ele>2171.76</ele>
        <time>2020-01-29T10:24:53Z</time>
      </trkpt>
      <trkpt lat="44.18214" lon="7.48165">
        <ele>2166.47</ele>
        <time>2020-01-29T10:25:04Z</time>
      </trkpt>
      <trkpt lat="44.18217" lon="7.48165">
        <ele>2162.14</ele>
        <time>2020-01-29T10:25:14Z</time>
      </trkpt>
      <trkpt lat="44.18228" lon="7.48167">
        <ele>2159.26</ele>
        <time>2020-01-29T10:25:24Z</time>
      </trkpt>
      <trkpt lat="44.18251" lon="7.48162">
        <ele>2152.53</ele>
        <time>2020-01-29T10:25:36Z</time>
      </trkpt>
      <trkpt lat="44.18256" lon="7.48159">
        <ele>2150.61</ele>
        <time>2020-01-29T10:25:40Z</time>
      </trkpt>
      <trkpt lat="44.18264" lon="7.48157">
        <ele>2145.32</ele>
        <time>2020-01-29T10:25:47Z</time>
      </trkpt>
      <trkpt lat="44.1826" lon="7.48172">
        <ele>2140.03</ele>
        <time>2020-01-29T10:25:54Z</time>
      </trkpt>
      <trkpt lat="44.18264" lon="7.48175">
        <ele>2139.07</ele>
        <time>2020-01-29T10:25:59Z</time>
      </trkpt>
      <trkpt lat="44.18285" lon="7.48157">
        <ele>2133.78</ele>
        <time>2020-01-29T10:26:08Z</time>
      </trkpt>
      <trkpt lat="44.18285" lon="7.48157">
        <ele>2133.3</ele>
        <time>2020-01-29T10:26:09Z</time>
      </trkpt>
      <trkpt lat="44.18292" lon="7.48158">
        <ele>2130.42</ele>
        <time>2020-01-29T10:26:16Z</time>
      </trkpt>
      <trkpt lat="44.18294" lon="7.48158">
        <ele>2128.02</ele>
        <time>2020-01-29T10:26:29Z</time>
      </trkpt>
      <trkpt lat="44.18296" lon="7.48156">
        <ele>2127.05</ele>
        <time>2020-01-29T10:26:41Z</time>
      </trkpt>
      <trkpt lat="44.18304" lon="7.4817">
        <ele>2122.73</ele>
        <time>2020-01-29T10:26:49Z</time>
      </trkpt>
      <trkpt lat="44.18307" lon="7.48165">
        <ele>2120.81</ele>
        <time>2020-01-29T10:26:53Z</time>
      </trkpt>
      <trkpt lat="44.18311" lon="7.48155">
        <ele>2117.92</ele>
        <time>2020-01-29T10:27:04Z</time>
      </trkpt>
      <trkpt lat="44.18311" lon="7.48157">
        <ele>2117.44</ele>
        <time>2020-01-29T10:27:08Z</time>
      </trkpt>
      <trkpt lat="44.18319" lon="7.48165">
        <ele>2115.04</ele>
        <time>2020-01-29T10:27:13Z</time>
      </trkpt>
      <trkpt lat="44.18321" lon="7.48168">
        <ele>2113.6</ele>
        <time>2020-01-29T10:27:15Z</time>
      </trkpt>
      <trkpt lat="44.18325" lon="7.4817">
        <ele>2111.67</ele>
        <time>2020-01-29T10:27:18Z</time>
      </trkpt>
      <trkpt lat="44.18333" lon="7.48163">
        <ele>2108.31</ele>
        <time>2020-01-29T10:27:27Z</time>
      </trkpt>
      <trkpt lat="44.18334" lon="7.48162">
        <ele>2108.31</ele>
        <time>2020-01-29T10:27:34Z</time>
      </trkpt>
      <trkpt lat="44.18334" lon="7.48159">
        <ele>2107.83</ele>
        <time>2020-01-29T10:27:37Z</time>
      </trkpt>
      <trkpt lat="44.1833" lon="7.48143">
        <ele>2104.46</ele>
        <time>2020-01-29T10:27:48Z</time>
      </trkpt>
      <trkpt lat="44.18327" lon="7.48128">
        <ele>2103.98</ele>
        <time>2020-01-29T10:27:54Z</time>
      </trkpt>
      <trkpt lat="44.18326" lon="7.48111">
        <ele>2102.54</ele>
        <time>2020-01-29T10:28:05Z</time>
      </trkpt>
      <trkpt lat="44.1832" lon="7.48098">
        <ele>2102.06</ele>
        <time>2020-01-29T10:28:14Z</time>
      </trkpt>
      <trkpt lat="44.18321" lon="7.48097">
        <ele>2102.06</ele>
        <time>2020-01-29T10:28:22Z</time>
      </trkpt>
      <trkpt lat="44.1832" lon="7.48093">
        <ele>2103.02</ele>
        <time>2020-01-29T10:28:30Z</time>
      </trkpt>
      <trkpt lat="44.18311" lon="7.48075">
        <ele>2103.02</ele>
        <time>2020-01-29T10:28:38Z</time>
      </trkpt>
      <trkpt lat="44.1831" lon="7.48067">
        <ele>2102.06</ele>
        <time>2020-01-29T10:28:41Z</time>
      </trkpt>
      <trkpt lat="44.18314" lon="7.48053">
        <ele>2101.58</ele>
        <time>2020-01-29T10:28:46Z</time>
      </trkpt>
      <trkpt lat="44.18328" lon="7.48021">
        <ele>2099.18</ele>
        <time>2020-01-29T10:28:57Z</time>
      </trkpt>
      <trkpt lat="44.18328" lon="7.48021">
        <ele>2099.66</ele>
        <time>2020-01-29T10:28:58Z</time>
      </trkpt>
      <trkpt lat="44.18333" lon="7.48042">
        <ele>2098.7</ele>
        <time>2020-01-29T10:29:05Z</time>
      </trkpt>
      <trkpt lat="44.18337" lon="7.48056">
        <ele>2098.21</ele>
        <time>2020-01-29T10:29:10Z</time>
      </trkpt>
      <trkpt lat="44.1834" lon="7.48058">
        <ele>2097.73</ele>
        <time>2020-01-29T10:29:13Z</time>
      </trkpt>
      <trkpt lat="44.18345" lon="7.48044">
        <ele>2097.73</ele>
        <time>2020-01-29T10:29:16Z</time>
      </trkpt>
      <trkpt lat="44.18351" lon="7.48019">
        <ele>2096.77</ele>
        <time>2020-01-29T10:29:20Z</time>
      </trkpt>
      <trkpt lat="44.18362" lon="7.47994">
        <ele>2096.29</ele>
        <time>2020-01-29T10:29:25Z</time>
      </trkpt>
      <trkpt lat="44.18386" lon="7.47983">
        <ele>2096.77</ele>
        <time>2020-01-29T10:29:34Z</time>
      </trkpt>
      <trkpt lat="44.18405" lon="7.47974">
        <ele>2097.73</ele>
        <time>2020-01-29T10:29:46Z</time>
      </trkpt>
      <trkpt lat="44.18432" lon="7.47947">
        <ele>2099.66</ele>
        <time>2020-01-29T10:29:58Z</time>
      </trkpt>
      <trkpt lat="44.18447" lon="7.47936">
        <ele>2100.62</ele>
        <time>2020-01-29T10:30:06Z</time>
      </trkpt>
      <trkpt lat="44.18482" lon="7.47933">
        <ele>2101.58</ele>
        <time>2020-01-29T10:30:17Z</time>
      </trkpt>
      <trkpt lat="44.18484" lon="7.47926">
        <ele>2090.52</ele>
        <time>2020-01-29T10:30:26Z</time>
      </trkpt>
      <trkpt lat="44.18482" lon="7.47923">
        <ele>2086.68</ele>
        <time>2020-01-29T10:30:35Z</time>
      </trkpt>
      <trkpt lat="44.18488" lon="7.47924">
        <ele>2087.16</ele>
        <time>2020-01-29T10:30:39Z</time>
      </trkpt>
      <trkpt lat="44.18508" lon="7.47932">
        <ele>2087.16</ele>
        <time>2020-01-29T10:30:52Z</time>
      </trkpt>
      <trkpt lat="44.18532" lon="7.47941">
        <ele>2087.64</ele>
        <time>2020-01-29T10:31:04Z</time>
      </trkpt>
      <trkpt lat="44.18536" lon="7.4794">
        <ele>2088.12</ele>
        <time>2020-01-29T10:31:15Z</time>
      </trkpt>
      <trkpt lat="44.18541" lon="7.4794">
        <ele>2088.12</ele>
        <time>2020-01-29T10:31:18Z</time>
      </trkpt>
      <trkpt lat="44.18545" lon="7.47945">
        <ele>2083.79</ele>
        <time>2020-01-29T10:31:22Z</time>
      </trkpt>
      <trkpt lat="44.18547" lon="7.47966">
        <ele>2073.7</ele>
        <time>2020-01-29T10:31:30Z</time>
      </trkpt>
      <trkpt lat="44.18544" lon="7.47969">
        <ele>2073.22</ele>
        <time>2020-01-29T10:31:32Z</time>
      </trkpt>
      <trkpt lat="44.18554" lon="7.4798">
        <ele>2071.3</ele>
        <time>2020-01-29T10:31:37Z</time>
      </trkpt>
      <trkpt lat="44.18558" lon="7.47978">
        <ele>2070.82</ele>
        <time>2020-01-29T10:31:41Z</time>
      </trkpt>
      <trkpt lat="44.18548" lon="7.47999">
        <ele>2066.97</ele>
        <time>2020-01-29T10:31:48Z</time>
      </trkpt>
      <trkpt lat="44.18511" lon="7.48021">
        <ele>2062.65</ele>
        <time>2020-01-29T10:31:59Z</time>
      </trkpt>
      <trkpt lat="44.18496" lon="7.4804">
        <ele>2062.17</ele>
        <time>2020-01-29T10:32:08Z</time>
      </trkpt>
      <trkpt lat="44.18496" lon="7.4804">
        <ele>2062.17</ele>
        <time>2020-01-29T10:32:10Z</time>
      </trkpt>
      <trkpt lat="44.18496" lon="7.48042">
        <ele>2062.17</ele>
        <time>2020-01-29T10:32:11Z</time>
      </trkpt>
      <trkpt lat="44.18497" lon="7.48047">
        <ele>2062.17</ele>
        <time>2020-01-29T10:32:13Z</time>
      </trkpt>
      <trkpt lat="44.18496" lon="7.48059">
        <ele>2062.17</ele>
        <time>2020-01-29T10:32:15Z</time>
      </trkpt>
      <trkpt lat="44.185" lon="7.48089">
        <ele>2053.51</ele>
        <time>2020-01-29T10:32:22Z</time>
      </trkpt>
      <trkpt lat="44.18502" lon="7.4811">
        <ele>2045.82</ele>
        <time>2020-01-29T10:32:30Z</time>
      </trkpt>
      <trkpt lat="44.18506" lon="7.48125">
        <ele>2037.17</ele>
        <time>2020-01-29T10:32:38Z</time>
      </trkpt>
      <trkpt lat="44.18506" lon="7.48125">
        <ele>2036.21</ele>
        <time>2020-01-29T10:32:40Z</time>
      </trkpt>
      <trkpt lat="44.1851" lon="7.48117">
        <ele>2028.04</ele>
        <time>2020-01-29T10:32:43Z</time>
      </trkpt>
      <trkpt lat="44.18517" lon="7.48096">
        <ele>2021.79</ele>
        <time>2020-01-29T10:32:52Z</time>
      </trkpt>
      <trkpt lat="44.18518" lon="7.48096">
        <ele>2021.31</ele>
        <time>2020-01-29T10:32:53Z</time>
      </trkpt>
      <trkpt lat="44.18527" lon="7.48086">
        <ele>2019.39</ele>
        <time>2020-01-29T10:32:57Z</time>
      </trkpt>
      <trkpt lat="44.18527" lon="7.48084">
        <ele>2019.39</ele>
        <time>2020-01-29T10:32:59Z</time>
      </trkpt>
      <trkpt lat="44.18528" lon="7.48082">
        <ele>2019.39</ele>
        <time>2020-01-29T10:33:00Z</time>
      </trkpt>
      <trkpt lat="44.18537" lon="7.48109">
        <ele>2009.77</ele>
        <time>2020-01-29T10:33:10Z</time>
      </trkpt>
      <trkpt lat="44.18538" lon="7.48125">
        <ele>2007.37</ele>
        <time>2020-01-29T10:33:12Z</time>
      </trkpt>
      <trkpt lat="44.18547" lon="7.48162">
        <ele>2001.6</ele>
        <time>2020-01-29T10:33:22Z</time>
      </trkpt>
      <trkpt lat="44.18555" lon="7.482">
        <ele>1994.39</ele>
        <time>2020-01-29T10:33:34Z</time>
      </trkpt>
      <trkpt lat="44.18553" lon="7.48202">
        <ele>1986.22</ele>
        <time>2020-01-29T10:33:54Z</time>
      </trkpt>
      <trkpt lat="44.18554" lon="7.48202">
        <ele>1981.9</ele>
        <time>2020-01-29T10:34:13Z</time>
      </trkpt>
      <trkpt lat="44.18569" lon="7.48236">
        <ele>1974.69</ele>
        <time>2020-01-29T10:34:27Z</time>
      </trkpt>
      <trkpt lat="44.18583" lon="7.4828">
        <ele>1972.76</ele>
        <time>2020-01-29T10:34:38Z</time>
      </trkpt>
      <trkpt lat="44.18583" lon="7.48286">
        <ele>1972.28</ele>
        <time>2020-01-29T10:34:42Z</time>
      </trkpt>
      <trkpt lat="44.18594" lon="7.48311">
        <ele>1968.44</ele>
        <time>2020-01-29T10:34:53Z</time>
      </trkpt>
      <trkpt lat="44.18595" lon="7.48313">
        <ele>1968.44</ele>
        <time>2020-01-29T10:34:58Z</time>
      </trkpt>
      <trkpt lat="44.18602" lon="7.48328">
        <ele>1966.03</ele>
        <time>2020-01-29T10:35:04Z</time>
      </trkpt>
      <trkpt lat="44.18611" lon="7.48345">
        <ele>1962.19</ele>
        <time>2020-01-29T10:35:11Z</time>
      </trkpt>
      <trkpt lat="44.1862" lon="7.48369">
        <ele>1959.3</ele>
        <time>2020-01-29T10:35:21Z</time>
      </trkpt>
      <trkpt lat="44.1862" lon="7.48369">
        <ele>1959.3</ele>
        <time>2020-01-29T10:35:22Z</time>
      </trkpt>
      <trkpt lat="44.18627" lon="7.48387">
        <ele>1954.98</ele>
        <time>2020-01-29T10:35:30Z</time>
      </trkpt>
      <trkpt lat="44.18633" lon="7.48404">
        <ele>1952.09</ele>
        <time>2020-01-29T10:35:42Z</time>
      </trkpt>
      <trkpt lat="44.18633" lon="7.48403">
        <ele>1949.21</ele>
        <time>2020-01-29T10:35:48Z</time>
      </trkpt>
      <trkpt lat="44.18632" lon="7.48401">
        <ele>1947.29</ele>
        <time>2020-01-29T10:35:57Z</time>
      </trkpt>
      <trkpt lat="44.18649" lon="7.48425">
        <ele>1941.04</ele>
        <time>2020-01-29T10:36:06Z</time>
      </trkpt>
      <trkpt lat="44.18664" lon="7.48443">
        <ele>1937.19</ele>
        <time>2020-01-29T10:36:15Z</time>
      </trkpt>
      <trkpt lat="44.18689" lon="7.48465">
        <ele>1934.31</ele>
        <time>2020-01-29T10:36:25Z</time>
      </trkpt>
      <trkpt lat="44.18697" lon="7.48471">
        <ele>1933.83</ele>
        <time>2020-01-29T10:36:30Z</time>
      </trkpt>
      <trkpt lat="44.18725" lon="7.48487">
        <ele>1933.35</ele>
        <time>2020-01-29T10:36:40Z</time>
      </trkpt>
      <trkpt lat="44.18734" lon="7.48494">
        <ele>1932.87</ele>
        <time>2020-01-29T10:36:49Z</time>
      </trkpt>
      <trkpt lat="44.18755" lon="7.48507">
        <ele>1929.98</ele>
        <time>2020-01-29T10:36:59Z</time>
      </trkpt>
      <trkpt lat="44.18762" lon="7.4851">
        <ele>1929.02</ele>
        <time>2020-01-29T10:37:10Z</time>
      </trkpt>
      <trkpt lat="44.18761" lon="7.48509">
        <ele>1928.06</ele>
        <time>2020-01-29T10:37:12Z</time>
      </trkpt>
      <trkpt lat="44.18749" lon="7.48505">
        <ele>1920.37</ele>
        <time>2020-01-29T10:37:23Z</time>
      </trkpt>
      <trkpt lat="44.18741" lon="7.48491">
        <ele>1912.68</ele>
        <time>2020-01-29T10:37:34Z</time>
      </trkpt>
      <trkpt lat="44.18733" lon="7.48475">
        <ele>1908.83</ele>
        <time>2020-01-29T10:37:41Z</time>
      </trkpt>
      <trkpt lat="44.18741" lon="7.48446">
        <ele>1908.83</ele>
        <time>2020-01-29T10:37:51Z</time>
      </trkpt>
      <trkpt lat="44.18779" lon="7.48442">
        <ele>1896.82</ele>
        <time>2020-01-29T10:38:02Z</time>
      </trkpt>
      <trkpt lat="44.18791" lon="7.4845">
        <ele>1891.53</ele>
        <time>2020-01-29T10:38:07Z</time>
      </trkpt>
      <trkpt lat="44.18809" lon="7.48426">
        <ele>1887.69</ele>
        <time>2020-01-29T10:38:15Z</time>
      </trkpt>
      <trkpt lat="44.1881" lon="7.48433">
        <ele>1886.72</ele>
        <time>2020-01-29T10:38:18Z</time>
      </trkpt>
      <trkpt lat="44.1881" lon="7.48439">
        <ele>1885.76</ele>
        <time>2020-01-29T10:38:20Z</time>
      </trkpt>
      <trkpt lat="44.18815" lon="7.48443">
        <ele>1884.32</ele>
        <time>2020-01-29T10:38:31Z</time>
      </trkpt>
      <trkpt lat="44.18816" lon="7.48445">
        <ele>1884.32</ele>
        <time>2020-01-29T10:38:45Z</time>
      </trkpt>
      <trkpt lat="44.18815" lon="7.48444">
        <ele>1885.76</ele>
        <time>2020-01-29T10:39:12Z</time>
      </trkpt>
      <trkpt lat="44.18813" lon="7.48445">
        <ele>1886.72</ele>
        <time>2020-01-29T10:39:29Z</time>
      </trkpt>
      <trkpt lat="44.18813" lon="7.48447">
        <ele>1886.24</ele>
        <time>2020-01-29T10:39:44Z</time>
      </trkpt>
      <trkpt lat="44.18812" lon="7.48443">
        <ele>1884.8</ele>
        <time>2020-01-29T10:39:57Z</time>
      </trkpt>
      <trkpt lat="44.18814" lon="7.48444">
        <ele>1883.36</ele>
        <time>2020-01-29T10:40:23Z</time>
      </trkpt>
      <trkpt lat="44.18812" lon="7.48441">
        <ele>1884.8</ele>
        <time>2020-01-29T10:40:48Z</time>
      </trkpt>
      <trkpt lat="44.18812" lon="7.48441">
        <ele>1886.72</ele>
        <time>2020-01-29T10:41:23Z</time>
      </trkpt>
      <trkpt lat="44.18813" lon="7.48442">
        <ele>1890.57</ele>
        <time>2020-01-29T10:41:58Z</time>
      </trkpt>
      <trkpt lat="44.18812" lon="7.48439">
        <ele>1888.17</ele>
        <time>2020-01-29T10:42:30Z</time>
      </trkpt>
      <trkpt lat="44.18812" lon="7.4844">
        <ele>1892.01</ele>
        <time>2020-01-29T10:42:58Z</time>
      </trkpt>
      <trkpt lat="44.18813" lon="7.48441">
        <ele>1894.42</ele>
        <time>2020-01-29T10:43:26Z</time>
      </trkpt>
      <trkpt lat="44.18812" lon="7.48444">
        <ele>1884.8</ele>
        <time>2020-01-29T10:43:42Z</time>
      </trkpt>
      <trkpt lat="44.18809" lon="7.48447">
        <ele>1883.36</ele>
        <time>2020-01-29T10:44:10Z</time>
      </trkpt>
      <trkpt lat="44.18809" lon="7.48451">
        <ele>1883.84</ele>
        <time>2020-01-29T10:44:38Z</time>
      </trkpt>
      <trkpt lat="44.18815" lon="7.48452">
        <ele>1884.32</ele>
        <time>2020-01-29T10:45:06Z</time>
      </trkpt>
      <trkpt lat="44.18815" lon="7.48452">
        <ele>1883.84</ele>
        <time>2020-01-29T10:45:34Z</time>
      </trkpt>
      <trkpt lat="44.18816" lon="7.48444">
        <ele>1879.51</ele>
        <time>2020-01-29T10:46:08Z</time>
      </trkpt>
      <trkpt lat="44.1881" lon="7.48441">
        <ele>1876.63</ele>
        <time>2020-01-29T10:46:36Z</time>
      </trkpt>
      <trkpt lat="44.18811" lon="7.48444">
        <ele>1877.59</ele>
        <time>2020-01-29T10:47:04Z</time>
      </trkpt>
      <trkpt lat="44.18811" lon="7.48445">
        <ele>1878.55</ele>
        <time>2020-01-29T10:47:14Z</time>
      </trkpt>
      <trkpt lat="44.18809" lon="7.48444">
        <ele>1882.88</ele>
        <time>2020-01-29T10:47:25Z</time>
      </trkpt>
      <trkpt lat="44.18811" lon="7.48445">
        <ele>1883.84</ele>
        <time>2020-01-29T10:47:39Z</time>
      </trkpt>
      <trkpt lat="44.18813" lon="7.48442">
        <ele>1885.28</ele>
        <time>2020-01-29T10:48:01Z</time>
      </trkpt>
      <trkpt lat="44.18817" lon="7.48435">
        <ele>1884.8</ele>
        <time>2020-01-29T10:48:04Z</time>
      </trkpt>
      <trkpt lat="44.18832" lon="7.48417">
        <ele>1880.96</ele>
        <time>2020-01-29T10:48:13Z</time>
      </trkpt>
      <trkpt lat="44.18839" lon="7.48404">
        <ele>1880.48</ele>
        <time>2020-01-29T10:48:17Z</time>
      </trkpt>
      <trkpt lat="44.18856" lon="7.48384">
        <ele>1878.07</ele>
        <time>2020-01-29T10:48:21Z</time>
      </trkpt>
      <trkpt lat="44.18872" lon="7.48374">
        <ele>1876.15</ele>
        <time>2020-01-29T10:48:24Z</time>
      </trkpt>
      <trkpt lat="44.18889" lon="7.48359">
        <ele>1874.23</ele>
        <time>2020-01-29T10:48:30Z</time>
      </trkpt>
      <trkpt lat="44.18912" lon="7.48362">
        <ele>1871.34</ele>
        <time>2020-01-29T10:48:40Z</time>
      </trkpt>
      <trkpt lat="44.18911" lon="7.48363">
        <ele>1870.38</ele>
        <time>2020-01-29T10:48:50Z</time>
      </trkpt>
      <trkpt lat="44.18925" lon="7.48374">
        <ele>1868.46</ele>
        <time>2020-01-29T10:48:57Z</time>
      </trkpt>
      <trkpt lat="44.18956" lon="7.48403">
        <ele>1866.06</ele>
        <time>2020-01-29T10:49:07Z</time>
      </trkpt>
      <trkpt lat="44.18962" lon="7.48408">
        <ele>1865.09</ele>
        <time>2020-01-29T10:49:09Z</time>
      </trkpt>
      <trkpt lat="44.18978" lon="7.4842">
        <ele>1862.21</ele>
        <time>2020-01-29T10:49:19Z</time>
      </trkpt>
      <trkpt lat="44.18977" lon="7.4842">
        <ele>1861.73</ele>
        <time>2020-01-29T10:49:31Z</time>
      </trkpt>
      <trkpt lat="44.18982" lon="7.48428">
        <ele>1861.25</ele>
        <time>2020-01-29T10:49:36Z</time>
      </trkpt>
      <trkpt lat="44.18975" lon="7.4844">
        <ele>1855.96</ele>
        <time>2020-01-29T10:49:43Z</time>
      </trkpt>
      <trkpt lat="44.18976" lon="7.48442">
        <ele>1855.96</ele>
        <time>2020-01-29T10:49:44Z</time>
      </trkpt>
      <trkpt lat="44.18983" lon="7.48453">
        <ele>1856.44</ele>
        <time>2020-01-29T10:49:51Z</time>
      </trkpt>
      <trkpt lat="44.18983" lon="7.48454">
        <ele>1855</ele>
        <time>2020-01-29T10:49:57Z</time>
      </trkpt>
      <trkpt lat="44.18989" lon="7.48469">
        <ele>1852.6</ele>
        <time>2020-01-29T10:50:04Z</time>
      </trkpt>
      <trkpt lat="44.18992" lon="7.48474">
        <ele>1850.68</ele>
        <time>2020-01-29T10:50:08Z</time>
      </trkpt>
      <trkpt lat="44.18985" lon="7.4848">
        <ele>1847.79</ele>
        <time>2020-01-29T10:50:12Z</time>
      </trkpt>
      <trkpt lat="44.18983" lon="7.48478">
        <ele>1841.54</ele>
        <time>2020-01-29T10:50:23Z</time>
      </trkpt>
      <trkpt lat="44.18982" lon="7.48477">
        <ele>1842.5</ele>
        <time>2020-01-29T10:50:27Z</time>
      </trkpt>
      <trkpt lat="44.18977" lon="7.48482">
        <ele>1836.74</ele>
        <time>2020-01-29T10:50:35Z</time>
      </trkpt>
      <trkpt lat="44.18988" lon="7.48503">
        <ele>1830.49</ele>
        <time>2020-01-29T10:50:41Z</time>
      </trkpt>
      <trkpt lat="44.1901" lon="7.4852">
        <ele>1824.24</ele>
        <time>2020-01-29T10:50:50Z</time>
      </trkpt>
      <trkpt lat="44.19012" lon="7.48523">
        <ele>1823.76</ele>
        <time>2020-01-29T10:50:51Z</time>
      </trkpt>
      <trkpt lat="44.19027" lon="7.48534">
        <ele>1819.43</ele>
        <time>2020-01-29T10:50:59Z</time>
      </trkpt>
      <trkpt lat="44.19025" lon="7.48534">
        <ele>1819.43</ele>
        <time>2020-01-29T10:51:07Z</time>
      </trkpt>
      <trkpt lat="44.19031" lon="7.48538">
        <ele>1820.87</ele>
        <time>2020-01-29T10:51:16Z</time>
      </trkpt>
      <trkpt lat="44.19037" lon="7.4855">
        <ele>1820.39</ele>
        <time>2020-01-29T10:51:23Z</time>
      </trkpt>
      <trkpt lat="44.19024" lon="7.48558">
        <ele>1814.63</ele>
        <time>2020-01-29T10:51:30Z</time>
      </trkpt>
      <trkpt lat="44.19025" lon="7.48562">
        <ele>1813.66</ele>
        <time>2020-01-29T10:51:32Z</time>
      </trkpt>
      <trkpt lat="44.19046" lon="7.48582">
        <ele>1808.86</ele>
        <time>2020-01-29T10:51:41Z</time>
      </trkpt>
      <trkpt lat="44.19039" lon="7.48586">
        <ele>1805.97</ele>
        <time>2020-01-29T10:51:45Z</time>
      </trkpt>
      <trkpt lat="44.1904" lon="7.48589">
        <ele>1802.13</ele>
        <time>2020-01-29T10:51:52Z</time>
      </trkpt>
      <trkpt lat="44.19047" lon="7.48599">
        <ele>1800.69</ele>
        <time>2020-01-29T10:51:57Z</time>
      </trkpt>
      <trkpt lat="44.19041" lon="7.48607">
        <ele>1795.4</ele>
        <time>2020-01-29T10:52:04Z</time>
      </trkpt>
      <trkpt lat="44.19039" lon="7.48601">
        <ele>1791.07</ele>
        <time>2020-01-29T10:52:18Z</time>
      </trkpt>
      <trkpt lat="44.19039" lon="7.48602">
        <ele>1793</ele>
        <time>2020-01-29T10:52:34Z</time>
      </trkpt>
      <trkpt lat="44.19054" lon="7.48621">
        <ele>1788.67</ele>
        <time>2020-01-29T10:52:44Z</time>
      </trkpt>
      <trkpt lat="44.19063" lon="7.4863">
        <ele>1785.79</ele>
        <time>2020-01-29T10:52:48Z</time>
      </trkpt>
      <trkpt lat="44.19072" lon="7.48636">
        <ele>1783.38</ele>
        <time>2020-01-29T10:52:51Z</time>
      </trkpt>
      <trkpt lat="44.19082" lon="7.48642">
        <ele>1779.06</ele>
        <time>2020-01-29T10:52:56Z</time>
      </trkpt>
      <trkpt lat="44.19096" lon="7.48649">
        <ele>1774.25</ele>
        <time>2020-01-29T10:53:03Z</time>
      </trkpt>
      <trkpt lat="44.19094" lon="7.48659">
        <ele>1770.41</ele>
        <time>2020-01-29T10:53:07Z</time>
      </trkpt>
      <trkpt lat="44.19086" lon="7.48664">
        <ele>1768</ele>
        <time>2020-01-29T10:53:10Z</time>
      </trkpt>
      <trkpt lat="44.19097" lon="7.48671">
        <ele>1761.75</ele>
        <time>2020-01-29T10:53:17Z</time>
      </trkpt>
      <trkpt lat="44.19096" lon="7.48684">
        <ele>1757.91</ele>
        <time>2020-01-29T10:53:22Z</time>
      </trkpt>
      <trkpt lat="44.19088" lon="7.48693">
        <ele>1756.47</ele>
        <time>2020-01-29T10:53:25Z</time>
      </trkpt>
      <trkpt lat="44.19076" lon="7.48699">
        <ele>1754.06</ele>
        <time>2020-01-29T10:53:33Z</time>
      </trkpt>
      <trkpt lat="44.19076" lon="7.48699">
        <ele>1751.18</ele>
        <time>2020-01-29T10:53:46Z</time>
      </trkpt>
      <trkpt lat="44.19075" lon="7.48697">
        <ele>1754.06</ele>
        <time>2020-01-29T10:53:57Z</time>
      </trkpt>
      <trkpt lat="44.19071" lon="7.48705">
        <ele>1752.62</ele>
        <time>2020-01-29T10:54:01Z</time>
      </trkpt>
      <trkpt lat="44.19047" lon="7.48725">
        <ele>1749.26</ele>
        <time>2020-01-29T10:54:09Z</time>
      </trkpt>
      <trkpt lat="44.19044" lon="7.48759">
        <ele>1744.93</ele>
        <time>2020-01-29T10:54:14Z</time>
      </trkpt>
      <trkpt lat="44.1906" lon="7.48804">
        <ele>1741.08</ele>
        <time>2020-01-29T10:54:25Z</time>
      </trkpt>
      <trkpt lat="44.1908" lon="7.48834">
        <ele>1739.64</ele>
        <time>2020-01-29T10:54:34Z</time>
      </trkpt>
      <trkpt lat="44.19083" lon="7.48838">
        <ele>1739.64</ele>
        <time>2020-01-29T10:54:35Z</time>
      </trkpt>
      <trkpt lat="44.191" lon="7.48863">
        <ele>1736.76</ele>
        <time>2020-01-29T10:54:41Z</time>
      </trkpt>
      <trkpt lat="44.19112" lon="7.4888">
        <ele>1735.32</ele>
        <time>2020-01-29T10:54:46Z</time>
      </trkpt>
      <trkpt lat="44.19112" lon="7.48861">
        <ele>1732.91</ele>
        <time>2020-01-29T10:54:52Z</time>
      </trkpt>
      <trkpt lat="44.19112" lon="7.4886">
        <ele>1732.43</ele>
        <time>2020-01-29T10:54:53Z</time>
      </trkpt>
      <trkpt lat="44.19122" lon="7.48866">
        <ele>1728.59</ele>
        <time>2020-01-29T10:55:02Z</time>
      </trkpt>
      <trkpt lat="44.19123" lon="7.48866">
        <ele>1728.11</ele>
        <time>2020-01-29T10:55:03Z</time>
      </trkpt>
      <trkpt lat="44.1913" lon="7.48876">
        <ele>1726.67</ele>
        <time>2020-01-29T10:55:10Z</time>
      </trkpt>
      <trkpt lat="44.19129" lon="7.48876">
        <ele>1723.78</ele>
        <time>2020-01-29T10:55:28Z</time>
      </trkpt>
      <trkpt lat="44.19131" lon="7.48879">
        <ele>1721.38</ele>
        <time>2020-01-29T10:55:49Z</time>
      </trkpt>
      <trkpt lat="44.19134" lon="7.48882">
        <ele>1719.94</ele>
        <time>2020-01-29T10:55:54Z</time>
      </trkpt>
      <trkpt lat="44.19137" lon="7.48872">
        <ele>1716.57</ele>
        <time>2020-01-29T10:56:00Z</time>
      </trkpt>
      <trkpt lat="44.19137" lon="7.48872">
        <ele>1716.09</ele>
        <time>2020-01-29T10:56:01Z</time>
      </trkpt>
      <trkpt lat="44.19146" lon="7.48878">
        <ele>1712.73</ele>
        <time>2020-01-29T10:56:05Z</time>
      </trkpt>
      <trkpt lat="44.19147" lon="7.4888">
        <ele>1712.25</ele>
        <time>2020-01-29T10:56:06Z</time>
      </trkpt>
      <trkpt lat="44.19154" lon="7.48889">
        <ele>1708.88</ele>
        <time>2020-01-29T10:56:17Z</time>
      </trkpt>
      <trkpt lat="44.19157" lon="7.48892">
        <ele>1707.44</ele>
        <time>2020-01-29T10:56:20Z</time>
      </trkpt>
      <trkpt lat="44.19159" lon="7.48886">
        <ele>1702.15</ele>
        <time>2020-01-29T10:56:27Z</time>
      </trkpt>
      <trkpt lat="44.1916" lon="7.48885">
        <ele>1701.19</ele>
        <time>2020-01-29T10:56:32Z</time>
      </trkpt>
      <trkpt lat="44.19161" lon="7.4888">
        <ele>1699.75</ele>
        <time>2020-01-29T10:56:36Z</time>
      </trkpt>
      <trkpt lat="44.19162" lon="7.48865">
        <ele>1697.83</ele>
        <time>2020-01-29T10:56:44Z</time>
      </trkpt>
      <trkpt lat="44.19172" lon="7.48873">
        <ele>1694.94</ele>
        <time>2020-01-29T10:56:48Z</time>
      </trkpt>
      <trkpt lat="44.19177" lon="7.4888">
        <ele>1693.5</ele>
        <time>2020-01-29T10:56:52Z</time>
      </trkpt>
      <trkpt lat="44.19181" lon="7.48863">
        <ele>1691.58</ele>
        <time>2020-01-29T10:56:58Z</time>
      </trkpt>
      <trkpt lat="44.19189" lon="7.48841">
        <ele>1687.25</ele>
        <time>2020-01-29T10:57:04Z</time>
      </trkpt>
      <trkpt lat="44.19193" lon="7.48839">
        <ele>1686.29</ele>
        <time>2020-01-29T10:57:05Z</time>
      </trkpt>
      <trkpt lat="44.19224" lon="7.48794">
        <ele>1680.04</ele>
        <time>2020-01-29T10:57:17Z</time>
      </trkpt>
      <trkpt lat="44.19251" lon="7.48764">
        <ele>1676.68</ele>
        <time>2020-01-29T10:57:27Z</time>
      </trkpt>
      <trkpt lat="44.19266" lon="7.48754">
        <ele>1673.31</ele>
        <time>2020-01-29T10:57:39Z</time>
      </trkpt>
      <trkpt lat="44.19284" lon="7.48747">
        <ele>1672.35</ele>
        <time>2020-01-29T10:57:46Z</time>
      </trkpt>
      <trkpt lat="44.19304" lon="7.48749">
        <ele>1669.95</ele>
        <time>2020-01-29T10:57:52Z</time>
      </trkpt>
      <trkpt lat="44.19321" lon="7.48752">
        <ele>1668.51</ele>
        <time>2020-01-29T10:58:02Z</time>
      </trkpt>
      <trkpt lat="44.19321" lon="7.4875">
        <ele>1666.58</ele>
        <time>2020-01-29T10:58:31Z</time>
      </trkpt>
      <trkpt lat="44.19322" lon="7.48749">
        <ele>1666.58</ele>
        <time>2020-01-29T10:58:45Z</time>
      </trkpt>
      <trkpt lat="44.19347" lon="7.48754">
        <ele>1664.18</ele>
        <time>2020-01-29T10:58:53Z</time>
      </trkpt>
      <trkpt lat="44.19366" lon="7.48753">
        <ele>1661.78</ele>
        <time>2020-01-29T10:58:57Z</time>
      </trkpt>
      <trkpt lat="44.19397" lon="7.48753">
        <ele>1658.41</ele>
        <time>2020-01-29T10:59:03Z</time>
      </trkpt>
      <trkpt lat="44.19408" lon="7.48755">
        <ele>1656.97</ele>
        <time>2020-01-29T10:59:05Z</time>
      </trkpt>
      <trkpt lat="44.19426" lon="7.48757">
        <ele>1653.6</ele>
        <time>2020-01-29T10:59:08Z</time>
      </trkpt>
      <trkpt lat="44.19455" lon="7.48762">
        <ele>1648.8</ele>
        <time>2020-01-29T10:59:15Z</time>
      </trkpt>
      <trkpt lat="44.19483" lon="7.48772">
        <ele>1646.4</ele>
        <time>2020-01-29T10:59:24Z</time>
      </trkpt>
      <trkpt lat="44.19506" lon="7.48781">
        <ele>1644.47</ele>
        <time>2020-01-29T10:59:32Z</time>
      </trkpt>
      <trkpt lat="44.19513" lon="7.48784">
        <ele>1643.03</ele>
        <time>2020-01-29T10:59:35Z</time>
      </trkpt>
      <trkpt lat="44.19513" lon="7.48805">
        <ele>1635.34</ele>
        <time>2020-01-29T10:59:41Z</time>
      </trkpt>
      <trkpt lat="44.19516" lon="7.48805">
        <ele>1634.38</ele>
        <time>2020-01-29T10:59:42Z</time>
      </trkpt>
      <trkpt lat="44.19522" lon="7.48811">
        <ele>1630.53</ele>
        <time>2020-01-29T10:59:45Z</time>
      </trkpt>
      <trkpt lat="44.19523" lon="7.48821">
        <ele>1627.65</ele>
        <time>2020-01-29T10:59:47Z</time>
      </trkpt>
      <trkpt lat="44.19526" lon="7.48825">
        <ele>1625.73</ele>
        <time>2020-01-29T10:59:48Z</time>
      </trkpt>
      <trkpt lat="44.19526" lon="7.48829">
        <ele>1624.28</ele>
        <time>2020-01-29T10:59:49Z</time>
      </trkpt>
      <trkpt lat="44.19526" lon="7.48834">
        <ele>1622.84</ele>
        <time>2020-01-29T10:59:50Z</time>
      </trkpt>
      <trkpt lat="44.19529" lon="7.48837">
        <ele>1620.92</ele>
        <time>2020-01-29T10:59:51Z</time>
      </trkpt>
      <trkpt lat="44.19532" lon="7.48837">
        <ele>1618.52</ele>
        <time>2020-01-29T10:59:52Z</time>
      </trkpt>
      <trkpt lat="44.19531" lon="7.48835">
        <ele>1614.19</ele>
        <time>2020-01-29T11:00:00Z</time>
      </trkpt>
      <trkpt lat="44.19531" lon="7.48833">
        <ele>1613.23</ele>
        <time>2020-01-29T11:00:11Z</time>
      </trkpt>
      <trkpt lat="44.19532" lon="7.48831">
        <ele>1612.75</ele>
        <time>2020-01-29T11:00:20Z</time>
      </trkpt>
      <trkpt lat="44.19547" lon="7.48827">
        <ele>1610.83</ele>
        <time>2020-01-29T11:00:27Z</time>
      </trkpt>
      <trkpt lat="44.19549" lon="7.48835">
        <ele>1608.9</ele>
        <time>2020-01-29T11:00:29Z</time>
      </trkpt>
      <trkpt lat="44.19547" lon="7.48842">
        <ele>1607.94</ele>
        <time>2020-01-29T11:00:30Z</time>
      </trkpt>
      <trkpt lat="44.19546" lon="7.48848">
        <ele>1606.98</ele>
        <time>2020-01-29T11:00:31Z</time>
      </trkpt>
      <trkpt lat="44.19545" lon="7.48853">
        <ele>1606.5</ele>
        <time>2020-01-29T11:00:32Z</time>
      </trkpt>
      <trkpt lat="44.19544" lon="7.48857">
        <ele>1606.02</ele>
        <time>2020-01-29T11:00:33Z</time>
      </trkpt>
      <trkpt lat="44.19546" lon="7.4886">
        <ele>1605.54</ele>
        <time>2020-01-29T11:00:34Z</time>
      </trkpt>
      <trkpt lat="44.19547" lon="7.4886">
        <ele>1605.06</ele>
        <time>2020-01-29T11:00:35Z</time>
      </trkpt>
      <trkpt lat="44.19549" lon="7.48857">
        <ele>1604.58</ele>
        <time>2020-01-29T11:00:36Z</time>
      </trkpt>
      <trkpt lat="44.19562" lon="7.48842">
        <ele>1603.14</ele>
        <time>2020-01-29T11:00:45Z</time>
      </trkpt>
      <trkpt lat="44.19562" lon="7.48844">
        <ele>1602.66</ele>
        <time>2020-01-29T11:00:46Z</time>
      </trkpt>
      <trkpt lat="44.19562" lon="7.48852">
        <ele>1601.69</ele>
        <time>2020-01-29T11:00:52Z</time>
      </trkpt>
      <trkpt lat="44.19563" lon="7.48853">
        <ele>1602.17</ele>
        <time>2020-01-29T11:00:53Z</time>
      </trkpt>
      <trkpt lat="44.19581" lon="7.48885">
        <ele>1598.81</ele>
        <time>2020-01-29T11:01:01Z</time>
      </trkpt>
      <trkpt lat="44.19584" lon="7.48902">
        <ele>1597.37</ele>
        <time>2020-01-29T11:01:04Z</time>
      </trkpt>
      <trkpt lat="44.19585" lon="7.48908">
        <ele>1596.89</ele>
        <time>2020-01-29T11:01:05Z</time>
      </trkpt>
      <trkpt lat="44.19587" lon="7.48915">
        <ele>1595.93</ele>
        <time>2020-01-29T11:01:06Z</time>
      </trkpt>
      <trkpt lat="44.1959" lon="7.48919">
        <ele>1594.96</ele>
        <time>2020-01-29T11:01:07Z</time>
      </trkpt>
      <trkpt lat="44.19594" lon="7.48921">
        <ele>1594.48</ele>
        <time>2020-01-29T11:01:08Z</time>
      </trkpt>
      <trkpt lat="44.19597" lon="7.48926">
        <ele>1593.52</ele>
        <time>2020-01-29T11:01:09Z</time>
      </trkpt>
      <trkpt lat="44.19598" lon="7.48933">
        <ele>1592.56</ele>
        <time>2020-01-29T11:01:10Z</time>
      </trkpt>
      <trkpt lat="44.19601" lon="7.4894">
        <ele>1591.12</ele>
        <time>2020-01-29T11:01:11Z</time>
      </trkpt>
      <trkpt lat="44.19605" lon="7.48943">
        <ele>1590.16</ele>
        <time>2020-01-29T11:01:12Z</time>
      </trkpt>
      <trkpt lat="44.19609" lon="7.48944">
        <ele>1589.68</ele>
        <time>2020-01-29T11:01:13Z</time>
      </trkpt>
      <trkpt lat="44.19617" lon="7.48946">
        <ele>1588.72</ele>
        <time>2020-01-29T11:01:16Z</time>
      </trkpt>
      <trkpt lat="44.1962" lon="7.48951">
        <ele>1588.24</ele>
        <time>2020-01-29T11:01:17Z</time>
      </trkpt>
      <trkpt lat="44.19621" lon="7.48956">
        <ele>1587.27</ele>
        <time>2020-01-29T11:01:18Z</time>
      </trkpt>
      <trkpt lat="44.19622" lon="7.48961">
        <ele>1586.31</ele>
        <time>2020-01-29T11:01:19Z</time>
      </trkpt>
      <trkpt lat="44.19623" lon="7.48969">
        <ele>1585.83</ele>
        <time>2020-01-29T11:01:20Z</time>
      </trkpt>
      <trkpt lat="44.19625" lon="7.48975">
        <ele>1584.87</ele>
        <time>2020-01-29T11:01:21Z</time>
      </trkpt>
      <trkpt lat="44.19629" lon="7.48979">
        <ele>1584.39</ele>
        <time>2020-01-29T11:01:22Z</time>
      </trkpt>
      <trkpt lat="44.19632" lon="7.48982">
        <ele>1583.91</ele>
        <time>2020-01-29T11:01:23Z</time>
      </trkpt>
      <trkpt lat="44.19635" lon="7.48985">
        <ele>1583.43</ele>
        <time>2020-01-29T11:01:24Z</time>
      </trkpt>
      <trkpt lat="44.19638" lon="7.4899">
        <ele>1583.43</ele>
        <time>2020-01-29T11:01:25Z</time>
      </trkpt>
      <trkpt lat="44.19646" lon="7.49005">
        <ele>1583.43</ele>
        <time>2020-01-29T11:01:28Z</time>
      </trkpt>
      <trkpt lat="44.19651" lon="7.49016">
        <ele>1582.47</ele>
        <time>2020-01-29T11:01:30Z</time>
      </trkpt>
      <trkpt lat="44.19653" lon="7.49019">
        <ele>1582.47</ele>
        <time>2020-01-29T11:01:31Z</time>
      </trkpt>
      <trkpt lat="44.19654" lon="7.49018">
        <ele>1581.99</ele>
        <time>2020-01-29T11:01:40Z</time>
      </trkpt>
      <trkpt lat="44.19656" lon="7.4902">
        <ele>1580.54</ele>
        <time>2020-01-29T11:01:42Z</time>
      </trkpt>
      <trkpt lat="44.19655" lon="7.49023">
        <ele>1579.58</ele>
        <time>2020-01-29T11:01:43Z</time>
      </trkpt>
      <trkpt lat="44.19654" lon="7.49026">
        <ele>1578.62</ele>
        <time>2020-01-29T11:01:44Z</time>
      </trkpt>
      <trkpt lat="44.19652" lon="7.49026">
        <ele>1578.14</ele>
        <time>2020-01-29T11:01:45Z</time>
      </trkpt>
      <trkpt lat="44.19649" lon="7.49029">
        <ele>1575.26</ele>
        <time>2020-01-29T11:01:58Z</time>
      </trkpt>
      <trkpt lat="44.19648" lon="7.49028">
        <ele>1574.3</ele>
        <time>2020-01-29T11:02:19Z</time>
      </trkpt>
      <trkpt lat="44.19648" lon="7.49026">
        <ele>1573.33</ele>
        <time>2020-01-29T11:02:36Z</time>
      </trkpt>
      <trkpt lat="44.19648" lon="7.49022">
        <ele>1573.33</ele>
        <time>2020-01-29T11:02:47Z</time>
      </trkpt>
      <trkpt lat="44.19647" lon="7.49019">
        <ele>1574.3</ele>
        <time>2020-01-29T11:03:14Z</time>
      </trkpt>
      <trkpt lat="44.19648" lon="7.49019">
        <ele>1574.78</ele>
        <time>2020-01-29T11:03:30Z</time>
      </trkpt>
      <trkpt lat="44.1965" lon="7.49022">
        <ele>1572.85</ele>
        <time>2020-01-29T11:03:50Z</time>
      </trkpt>
      <trkpt lat="44.19651" lon="7.49023">
        <ele>1573.82</ele>
        <time>2020-01-29T11:04:14Z</time>
      </trkpt>
      <trkpt lat="44.19651" lon="7.49023">
        <ele>1576.22</ele>
        <time>2020-01-29T11:04:35Z</time>
      </trkpt>
      <trkpt lat="44.19651" lon="7.49022">
        <ele>1574.3</ele>
        <time>2020-01-29T11:04:59Z</time>
      </trkpt>
      <trkpt lat="44.19649" lon="7.49022">
        <ele>1571.89</ele>
        <time>2020-01-29T11:05:18Z</time>
      </trkpt>
      <trkpt lat="44.19649" lon="7.49022">
        <ele>1572.85</ele>
        <time>2020-01-29T11:05:31Z</time>
      </trkpt>
      <trkpt lat="44.1965" lon="7.49021">
        <ele>1573.82</ele>
        <time>2020-01-29T11:05:47Z</time>
      </trkpt>
      <trkpt lat="44.1965" lon="7.49022">
        <ele>1576.22</ele>
        <time>2020-01-29T11:06:05Z</time>
      </trkpt>
      <trkpt lat="44.19647" lon="7.49024">
        <ele>1577.18</ele>
        <time>2020-01-29T11:06:34Z</time>
      </trkpt>
      <trkpt lat="44.19648" lon="7.49023">
        <ele>1575.74</ele>
        <time>2020-01-29T11:06:54Z</time>
      </trkpt>
      <trkpt lat="44.19647" lon="7.4903">
        <ele>1574.3</ele>
        <time>2020-01-29T11:06:57Z</time>
      </trkpt>
      <trkpt lat="44.19644" lon="7.49032">
        <ele>1573.33</ele>
        <time>2020-01-29T11:06:58Z</time>
      </trkpt>
      <trkpt lat="44.1964" lon="7.49034">
        <ele>1571.89</ele>
        <time>2020-01-29T11:06:59Z</time>
      </trkpt>
      <trkpt lat="44.19638" lon="7.4904">
        <ele>1570.93</ele>
        <time>2020-01-29T11:07:00Z</time>
      </trkpt>
      <trkpt lat="44.19637" lon="7.49047">
        <ele>1569.97</ele>
        <time>2020-01-29T11:07:01Z</time>
      </trkpt>
      <trkpt lat="44.19637" lon="7.49055">
        <ele>1569.01</ele>
        <time>2020-01-29T11:07:02Z</time>
      </trkpt>
      <trkpt lat="44.19636" lon="7.49062">
        <ele>1568.53</ele>
        <time>2020-01-29T11:07:03Z</time>
      </trkpt>
      <trkpt lat="44.19635" lon="7.49068">
        <ele>1568.53</ele>
        <time>2020-01-29T11:07:04Z</time>
      </trkpt>
      <trkpt lat="44.19635" lon="7.49073">
        <ele>1568.53</ele>
        <time>2020-01-29T11:07:05Z</time>
      </trkpt>
      <trkpt lat="44.19636" lon="7.49077">
        <ele>1568.53</ele>
        <time>2020-01-29T11:07:06Z</time>
      </trkpt>
      <trkpt lat="44.19636" lon="7.4908">
        <ele>1568.53</ele>
        <time>2020-01-29T11:07:07Z</time>
      </trkpt>
      <trkpt lat="44.1962" lon="7.49093">
        <ele>1564.2</ele>
        <time>2020-01-29T11:07:12Z</time>
      </trkpt>
      <trkpt lat="44.19615" lon="7.49101">
        <ele>1564.68</ele>
        <time>2020-01-29T11:07:21Z</time>
      </trkpt>
      <trkpt lat="44.19618" lon="7.49104">
        <ele>1564.2</ele>
        <time>2020-01-29T11:07:23Z</time>
      </trkpt>
      <trkpt lat="44.19623" lon="7.49099">
        <ele>1564.2</ele>
        <time>2020-01-29T11:07:30Z</time>
      </trkpt>
      <trkpt lat="44.19624" lon="7.491">
        <ele>1563.72</ele>
        <time>2020-01-29T11:07:34Z</time>
      </trkpt>
      <trkpt lat="44.19626" lon="7.49103">
        <ele>1563.72</ele>
        <time>2020-01-29T11:07:36Z</time>
      </trkpt>
      <trkpt lat="44.19627" lon="7.49107">
        <ele>1563.72</ele>
        <time>2020-01-29T11:07:37Z</time>
      </trkpt>
      <trkpt lat="44.19628" lon="7.49112">
        <ele>1563.72</ele>
        <time>2020-01-29T11:07:38Z</time>
      </trkpt>
      <trkpt lat="44.19629" lon="7.49119">
        <ele>1563.24</ele>
        <time>2020-01-29T11:07:39Z</time>
      </trkpt>
      <trkpt lat="44.19628" lon="7.49126">
        <ele>1562.76</ele>
        <time>2020-01-29T11:07:40Z</time>
      </trkpt>
      <trkpt lat="44.19626" lon="7.49133">
        <ele>1562.28</ele>
        <time>2020-01-29T11:07:41Z</time>
      </trkpt>
      <trkpt lat="44.19624" lon="7.49138">
        <ele>1561.8</ele>
        <time>2020-01-29T11:07:42Z</time>
      </trkpt>
      <trkpt lat="44.19622" lon="7.49141">
        <ele>1561.32</ele>
        <time>2020-01-29T11:07:43Z</time>
      </trkpt>
      <trkpt lat="44.19622" lon="7.49143">
        <ele>1561.32</ele>
        <time>2020-01-29T11:07:45Z</time>
      </trkpt>
      <trkpt lat="44.19621" lon="7.49143">
        <ele>1561.8</ele>
        <time>2020-01-29T11:07:46Z</time>
      </trkpt>
      <trkpt lat="44.19623" lon="7.49142">
        <ele>1561.8</ele>
        <time>2020-01-29T11:07:49Z</time>
      </trkpt>
      <trkpt lat="44.19625" lon="7.49143">
        <ele>1561.32</ele>
        <time>2020-01-29T11:07:50Z</time>
      </trkpt>
      <trkpt lat="44.19626" lon="7.49147">
        <ele>1560.36</ele>
        <time>2020-01-29T11:07:51Z</time>
      </trkpt>
      <trkpt lat="44.19627" lon="7.49153">
        <ele>1555.55</ele>
        <time>2020-01-29T11:07:55Z</time>
      </trkpt>
      <trkpt lat="44.19627" lon="7.49156">
        <ele>1555.07</ele>
        <time>2020-01-29T11:07:56Z</time>
      </trkpt>
      <trkpt lat="44.19632" lon="7.49168">
        <ele>1554.59</ele>
        <time>2020-01-29T11:08:01Z</time>
      </trkpt>
      <trkpt lat="44.19629" lon="7.49177">
        <ele>1553.15</ele>
        <time>2020-01-29T11:08:03Z</time>
      </trkpt>
      <trkpt lat="44.19626" lon="7.4918">
        <ele>1552.19</ele>
        <time>2020-01-29T11:08:04Z</time>
      </trkpt>
      <trkpt lat="44.19623" lon="7.49183">
        <ele>1551.71</ele>
        <time>2020-01-29T11:08:05Z</time>
      </trkpt>
      <trkpt lat="44.1962" lon="7.49187">
        <ele>1551.22</ele>
        <time>2020-01-29T11:08:06Z</time>
      </trkpt>
      <trkpt lat="44.19619" lon="7.49192">
        <ele>1550.74</ele>
        <time>2020-01-29T11:08:07Z</time>
      </trkpt>
      <trkpt lat="44.19618" lon="7.49196">
        <ele>1550.74</ele>
        <time>2020-01-29T11:08:08Z</time>
      </trkpt>
      <trkpt lat="44.19616" lon="7.49201">
        <ele>1550.74</ele>
        <time>2020-01-29T11:08:09Z</time>
      </trkpt>
      <trkpt lat="44.19615" lon="7.49205">
        <ele>1550.74</ele>
        <time>2020-01-29T11:08:10Z</time>
      </trkpt>
      <trkpt lat="44.19615" lon="7.4921">
        <ele>1550.74</ele>
        <time>2020-01-29T11:08:11Z</time>
      </trkpt>
      <trkpt lat="44.19616" lon="7.49216">
        <ele>1551.22</ele>
        <time>2020-01-29T11:08:12Z</time>
      </trkpt>
      <trkpt lat="44.19617" lon="7.49223">
        <ele>1551.22</ele>
        <time>2020-01-29T11:08:13Z</time>
      </trkpt>
      <trkpt lat="44.19616" lon="7.4923">
        <ele>1551.22</ele>
        <time>2020-01-29T11:08:14Z</time>
      </trkpt>
      <trkpt lat="44.19615" lon="7.49237">
        <ele>1549.78</ele>
        <time>2020-01-29T11:08:15Z</time>
      </trkpt>
      <trkpt lat="44.19613" lon="7.49243">
        <ele>1548.34</ele>
        <time>2020-01-29T11:08:16Z</time>
      </trkpt>
      <trkpt lat="44.1961" lon="7.49247">
        <ele>1547.38</ele>
        <time>2020-01-29T11:08:17Z</time>
      </trkpt>
      <trkpt lat="44.19608" lon="7.49251">
        <ele>1546.9</ele>
        <time>2020-01-29T11:08:18Z</time>
      </trkpt>
      <trkpt lat="44.19598" lon="7.49262">
        <ele>1543.05</ele>
        <time>2020-01-29T11:08:26Z</time>
      </trkpt>
      <trkpt lat="44.19597" lon="7.49259">
        <ele>1541.61</ele>
        <time>2020-01-29T11:08:41Z</time>
      </trkpt>
      <trkpt lat="44.19597" lon="7.4926">
        <ele>1540.17</ele>
        <time>2020-01-29T11:08:49Z</time>
      </trkpt>
      <trkpt lat="44.19568" lon="7.49268">
        <ele>1533.92</ele>
        <time>2020-01-29T11:08:59Z</time>
      </trkpt>
      <trkpt lat="44.19552" lon="7.49266">
        <ele>1531.04</ele>
        <time>2020-01-29T11:09:02Z</time>
      </trkpt>
      <trkpt lat="44.19548" lon="7.49265">
        <ele>1530.08</ele>
        <time>2020-01-29T11:09:03Z</time>
      </trkpt>
      <trkpt lat="44.19543" lon="7.49265">
        <ele>1529.59</ele>
        <time>2020-01-29T11:09:04Z</time>
      </trkpt>
      <trkpt lat="44.19538" lon="7.49265">
        <ele>1529.11</ele>
        <time>2020-01-29T11:09:05Z</time>
      </trkpt>
      <trkpt lat="44.19534" lon="7.49265">
        <ele>1528.63</ele>
        <time>2020-01-29T11:09:06Z</time>
      </trkpt>
      <trkpt lat="44.1953" lon="7.49265">
        <ele>1528.15</ele>
        <time>2020-01-29T11:09:07Z</time>
      </trkpt>
      <trkpt lat="44.19526" lon="7.49266">
        <ele>1527.19</ele>
        <time>2020-01-29T11:09:08Z</time>
      </trkpt>
      <trkpt lat="44.19522" lon="7.49268">
        <ele>1526.23</ele>
        <time>2020-01-29T11:09:09Z</time>
      </trkpt>
      <trkpt lat="44.19519" lon="7.49272">
        <ele>1525.75</ele>
        <time>2020-01-29T11:09:10Z</time>
      </trkpt>
      <trkpt lat="44.1952" lon="7.49275">
        <ele>1525.75</ele>
        <time>2020-01-29T11:09:11Z</time>
      </trkpt>
      <trkpt lat="44.1952" lon="7.49274">
        <ele>1525.75</ele>
        <time>2020-01-29T11:09:19Z</time>
      </trkpt>
      <trkpt lat="44.19522" lon="7.49282">
        <ele>1525.75</ele>
        <time>2020-01-29T11:09:29Z</time>
      </trkpt>
      <trkpt lat="44.19517" lon="7.49291">
        <ele>1523.35</ele>
        <time>2020-01-29T11:09:32Z</time>
      </trkpt>
      <trkpt lat="44.19516" lon="7.49299">
        <ele>1521.42</ele>
        <time>2020-01-29T11:09:36Z</time>
      </trkpt>
      <trkpt lat="44.19517" lon="7.49301">
        <ele>1521.42</ele>
        <time>2020-01-29T11:09:37Z</time>
      </trkpt>
      <trkpt lat="44.19517" lon="7.49303">
        <ele>1521.42</ele>
        <time>2020-01-29T11:09:38Z</time>
      </trkpt>
      <trkpt lat="44.19517" lon="7.49308">
        <ele>1519.5</ele>
        <time>2020-01-29T11:09:50Z</time>
      </trkpt>
      <trkpt lat="44.19517" lon="7.4931">
        <ele>1519.5</ele>
        <time>2020-01-29T11:09:51Z</time>
      </trkpt>
      <trkpt lat="44.19517" lon="7.49311">
        <ele>1519.5</ele>
        <time>2020-01-29T11:09:52Z</time>
      </trkpt>
      <trkpt lat="44.19518" lon="7.49308">
        <ele>1519.5</ele>
        <time>2020-01-29T11:09:53Z</time>
      </trkpt>
      <trkpt lat="44.1952" lon="7.49307">
        <ele>1519.98</ele>
        <time>2020-01-29T11:09:54Z</time>
      </trkpt>
      <trkpt lat="44.19521" lon="7.49307">
        <ele>1519.98</ele>
        <time>2020-01-29T11:09:55Z</time>
      </trkpt>
      <trkpt lat="44.19524" lon="7.49312">
        <ele>1519.98</ele>
        <time>2020-01-29T11:09:59Z</time>
      </trkpt>
      <trkpt lat="44.19524" lon="7.49317">
        <ele>1519.02</ele>
        <time>2020-01-29T11:10:01Z</time>
      </trkpt>
      <trkpt lat="44.19523" lon="7.49318">
        <ele>1518.54</ele>
        <time>2020-01-29T11:10:02Z</time>
      </trkpt>
      <trkpt lat="44.19523" lon="7.49318">
        <ele>1518.06</ele>
        <time>2020-01-29T11:10:03Z</time>
      </trkpt>
      <trkpt lat="44.19531" lon="7.49312">
        <ele>1516.62</ele>
        <time>2020-01-29T11:10:06Z</time>
      </trkpt>
      <trkpt lat="44.19532" lon="7.4933">
        <ele>1513.73</ele>
        <time>2020-01-29T11:10:11Z</time>
      </trkpt>
      <trkpt lat="44.19529" lon="7.49341">
        <ele>1512.77</ele>
        <time>2020-01-29T11:10:14Z</time>
      </trkpt>
      <trkpt lat="44.1953" lon="7.49342">
        <ele>1512.77</ele>
        <time>2020-01-29T11:10:15Z</time>
      </trkpt>
      <trkpt lat="44.19529" lon="7.49339">
        <ele>1512.29</ele>
        <time>2020-01-29T11:10:21Z</time>
      </trkpt>
      <trkpt lat="44.19531" lon="7.49339">
        <ele>1511.81</ele>
        <time>2020-01-29T11:10:22Z</time>
      </trkpt>
      <trkpt lat="44.19535" lon="7.49347">
        <ele>1511.33</ele>
        <time>2020-01-29T11:10:24Z</time>
      </trkpt>
      <trkpt lat="44.19538" lon="7.49349">
        <ele>1510.85</ele>
        <time>2020-01-29T11:10:25Z</time>
      </trkpt>
      <trkpt lat="44.19542" lon="7.49349">
        <ele>1510.85</ele>
        <time>2020-01-29T11:10:26Z</time>
      </trkpt>
      <trkpt lat="44.19546" lon="7.49348">
        <ele>1510.37</ele>
        <time>2020-01-29T11:10:27Z</time>
      </trkpt>
      <trkpt lat="44.19556" lon="7.49347">
        <ele>1509.41</ele>
        <time>2020-01-29T11:10:29Z</time>
      </trkpt>
      <trkpt lat="44.19559" lon="7.49346">
        <ele>1509.41</ele>
        <time>2020-01-29T11:10:30Z</time>
      </trkpt>
      <trkpt lat="44.19562" lon="7.49347">
        <ele>1509.41</ele>
        <time>2020-01-29T11:10:40Z</time>
      </trkpt>
      <trkpt lat="44.19561" lon="7.49353">
        <ele>1509.41</ele>
        <time>2020-01-29T11:10:42Z</time>
      </trkpt>
      <trkpt lat="44.19556" lon="7.49364">
        <ele>1507.48</ele>
        <time>2020-01-29T11:10:44Z</time>
      </trkpt>
      <trkpt lat="44.19568" lon="7.4937">
        <ele>1505.56</ele>
        <time>2020-01-29T11:10:51Z</time>
      </trkpt>
      <trkpt lat="44.19594" lon="7.49374">
        <ele>1501.72</ele>
        <time>2020-01-29T11:11:02Z</time>
      </trkpt>
      <trkpt lat="44.19613" lon="7.49377">
        <ele>1495.95</ele>
        <time>2020-01-29T11:11:11Z</time>
      </trkpt>
      <trkpt lat="44.19615" lon="7.49377">
        <ele>1495.95</ele>
        <time>2020-01-29T11:11:12Z</time>
      </trkpt>
      <trkpt lat="44.19637" lon="7.49371">
        <ele>1494.03</ele>
        <time>2020-01-29T11:11:24Z</time>
      </trkpt>
      <trkpt lat="44.19644" lon="7.49373">
        <ele>1494.03</ele>
        <time>2020-01-29T11:11:28Z</time>
      </trkpt>
      <trkpt lat="44.19643" lon="7.49388">
        <ele>1489.7</ele>
        <time>2020-01-29T11:11:32Z</time>
      </trkpt>
      <trkpt lat="44.19639" lon="7.49392">
        <ele>1486.34</ele>
        <time>2020-01-29T11:11:34Z</time>
      </trkpt>
      <trkpt lat="44.1964" lon="7.494">
        <ele>1481.05</ele>
        <time>2020-01-29T11:11:40Z</time>
      </trkpt>
      <trkpt lat="44.19648" lon="7.49402">
        <ele>1479.61</ele>
        <time>2020-01-29T11:11:42Z</time>
      </trkpt>
      <trkpt lat="44.19667" lon="7.4941">
        <ele>1476.24</ele>
        <time>2020-01-29T11:11:49Z</time>
      </trkpt>
      <trkpt lat="44.19672" lon="7.49412">
        <ele>1474.8</ele>
        <time>2020-01-29T11:11:59Z</time>
      </trkpt>
      <trkpt lat="44.19679" lon="7.4941">
        <ele>1473.84</ele>
        <time>2020-01-29T11:12:06Z</time>
      </trkpt>
      <trkpt lat="44.19689" lon="7.4941">
        <ele>1471.92</ele>
        <time>2020-01-29T11:12:10Z</time>
      </trkpt>
      <trkpt lat="44.19706" lon="7.49402">
        <ele>1469.03</ele>
        <time>2020-01-29T11:12:19Z</time>
      </trkpt>
      <trkpt lat="44.19706" lon="7.49403">
        <ele>1468.55</ele>
        <time>2020-01-29T11:12:21Z</time>
      </trkpt>
      <trkpt lat="44.19714" lon="7.49398">
        <ele>1467.59</ele>
        <time>2020-01-29T11:12:26Z</time>
      </trkpt>
      <trkpt lat="44.19716" lon="7.49398">
        <ele>1467.11</ele>
        <time>2020-01-29T11:12:36Z</time>
      </trkpt>
      <trkpt lat="44.19731" lon="7.49405">
        <ele>1463.26</ele>
        <time>2020-01-29T11:12:42Z</time>
      </trkpt>
      <trkpt lat="44.19733" lon="7.49408">
        <ele>1459.42</ele>
        <time>2020-01-29T11:12:45Z</time>
      </trkpt>
      <trkpt lat="44.19733" lon="7.49432">
        <ele>1452.69</ele>
        <time>2020-01-29T11:12:51Z</time>
      </trkpt>
      <trkpt lat="44.19736" lon="7.49429">
        <ele>1451.73</ele>
        <time>2020-01-29T11:12:52Z</time>
      </trkpt>
      <trkpt lat="44.1975" lon="7.49414">
        <ele>1449.32</ele>
        <time>2020-01-29T11:12:58Z</time>
      </trkpt>
      <trkpt lat="44.19755" lon="7.49436">
        <ele>1444.52</ele>
        <time>2020-01-29T11:13:04Z</time>
      </trkpt>
      <trkpt lat="44.19765" lon="7.49437">
        <ele>1440.67</ele>
        <time>2020-01-29T11:13:10Z</time>
      </trkpt>
      <trkpt lat="44.19764" lon="7.4944">
        <ele>1434.42</ele>
        <time>2020-01-29T11:13:32Z</time>
      </trkpt>
      <trkpt lat="44.19763" lon="7.49443">
        <ele>1430.58</ele>
        <time>2020-01-29T11:13:42Z</time>
      </trkpt>
      <trkpt lat="44.19764" lon="7.49443">
        <ele>1431.06</ele>
        <time>2020-01-29T11:13:57Z</time>
      </trkpt>
      <trkpt lat="44.19764" lon="7.49444">
        <ele>1429.62</ele>
        <time>2020-01-29T11:14:09Z</time>
      </trkpt>
      <trkpt lat="44.19764" lon="7.49442">
        <ele>1429.14</ele>
        <time>2020-01-29T11:14:20Z</time>
      </trkpt>
      <trkpt lat="44.19772" lon="7.4945">
        <ele>1426.25</ele>
        <time>2020-01-29T11:14:27Z</time>
      </trkpt>
      <trkpt lat="44.19774" lon="7.49452">
        <ele>1424.81</ele>
        <time>2020-01-29T11:14:35Z</time>
      </trkpt>
      <trkpt lat="44.19774" lon="7.49452">
        <ele>1424.33</ele>
        <time>2020-01-29T11:14:37Z</time>
      </trkpt>
      <trkpt lat="44.19775" lon="7.49453">
        <ele>1425.29</ele>
        <time>2020-01-29T11:14:50Z</time>
      </trkpt>
      <trkpt lat="44.19779" lon="7.49454">
        <ele>1422.89</ele>
        <time>2020-01-29T11:15:02Z</time>
      </trkpt>
      <trkpt lat="44.1978" lon="7.49456">
        <ele>1422.41</ele>
        <time>2020-01-29T11:15:05Z</time>
      </trkpt>
      <trkpt lat="44.1978" lon="7.49467">
        <ele>1420.97</ele>
        <time>2020-01-29T11:15:10Z</time>
      </trkpt>
      <trkpt lat="44.19782" lon="7.49466">
        <ele>1419.52</ele>
        <time>2020-01-29T11:15:12Z</time>
      </trkpt>
      <trkpt lat="44.19792" lon="7.49475">
        <ele>1418.08</ele>
        <time>2020-01-29T11:15:18Z</time>
      </trkpt>
      <trkpt lat="44.19793" lon="7.49475">
        <ele>1416.64</ele>
        <time>2020-01-29T11:15:24Z</time>
      </trkpt>
      <trkpt lat="44.19794" lon="7.49475">
        <ele>1416.64</ele>
        <time>2020-01-29T11:15:35Z</time>
      </trkpt>
      <trkpt lat="44.198" lon="7.49493">
        <ele>1415.68</ele>
        <time>2020-01-29T11:15:43Z</time>
      </trkpt>
      <trkpt lat="44.19811" lon="7.49507">
        <ele>1414.72</ele>
        <time>2020-01-29T11:15:48Z</time>
      </trkpt>
      <trkpt lat="44.19814" lon="7.49523">
        <ele>1413.28</ele>
        <time>2020-01-29T11:15:52Z</time>
      </trkpt>
      <trkpt lat="44.19807" lon="7.49539">
        <ele>1413.28</ele>
        <time>2020-01-29T11:15:56Z</time>
      </trkpt>
      <trkpt lat="44.19814" lon="7.49538">
        <ele>1413.28</ele>
        <time>2020-01-29T11:16:00Z</time>
      </trkpt>
      <trkpt lat="44.19808" lon="7.49557">
        <ele>1410.87</ele>
        <time>2020-01-29T11:16:05Z</time>
      </trkpt>
      <trkpt lat="44.19815" lon="7.49574">
        <ele>1408.95</ele>
        <time>2020-01-29T11:16:11Z</time>
      </trkpt>
      <trkpt lat="44.19817" lon="7.49579">
        <ele>1408.47</ele>
        <time>2020-01-29T11:16:12Z</time>
      </trkpt>
      <trkpt lat="44.19822" lon="7.49601">
        <ele>1405.58</ele>
        <time>2020-01-29T11:16:15Z</time>
      </trkpt>
      <trkpt lat="44.1982" lon="7.49604">
        <ele>1405.1</ele>
        <time>2020-01-29T11:16:16Z</time>
      </trkpt>
      <trkpt lat="44.19819" lon="7.49607">
        <ele>1402.22</ele>
        <time>2020-01-29T11:16:20Z</time>
      </trkpt>
      <trkpt lat="44.19819" lon="7.49611">
        <ele>1401.74</ele>
        <time>2020-01-29T11:16:21Z</time>
      </trkpt>
      <trkpt lat="44.19818" lon="7.49614">
        <ele>1401.26</ele>
        <time>2020-01-29T11:16:22Z</time>
      </trkpt>
      <trkpt lat="44.19817" lon="7.49614">
        <ele>1400.3</ele>
        <time>2020-01-29T11:16:26Z</time>
      </trkpt>
      <trkpt lat="44.19817" lon="7.49613">
        <ele>1399.82</ele>
        <time>2020-01-29T11:16:27Z</time>
      </trkpt>
      <trkpt lat="44.19818" lon="7.49611">
        <ele>1399.82</ele>
        <time>2020-01-29T11:16:28Z</time>
      </trkpt>
      <trkpt lat="44.19819" lon="7.4961">
        <ele>1399.34</ele>
        <time>2020-01-29T11:16:29Z</time>
      </trkpt>
      <trkpt lat="44.1982" lon="7.49608">
        <ele>1399.34</ele>
        <time>2020-01-29T11:16:30Z</time>
      </trkpt>
      <trkpt lat="44.19821" lon="7.49606">
        <ele>1399.34</ele>
        <time>2020-01-29T11:16:31Z</time>
      </trkpt>
      <trkpt lat="44.19831" lon="7.49591">
        <ele>1395.49</ele>
        <time>2020-01-29T11:16:42Z</time>
      </trkpt>
      <trkpt lat="44.19832" lon="7.49591">
        <ele>1395.01</ele>
        <time>2020-01-29T11:16:58Z</time>
      </trkpt>
      <trkpt lat="44.19832" lon="7.49588">
        <ele>1392.13</ele>
        <time>2020-01-29T11:17:11Z</time>
      </trkpt>
      <trkpt lat="44.19833" lon="7.49589">
        <ele>1391.17</ele>
        <time>2020-01-29T11:17:22Z</time>
      </trkpt>
      <trkpt lat="44.19837" lon="7.49593">
        <ele>1386.84</ele>
        <time>2020-01-29T11:17:35Z</time>
      </trkpt>
      <trkpt lat="44.19836" lon="7.49591">
        <ele>1383.47</ele>
        <time>2020-01-29T11:17:45Z</time>
      </trkpt>
      <trkpt lat="44.19836" lon="7.49592">
        <ele>1383.47</ele>
        <time>2020-01-29T11:17:56Z</time>
      </trkpt>
      <trkpt lat="44.19835" lon="7.49592">
        <ele>1380.11</ele>
        <time>2020-01-29T11:18:15Z</time>
      </trkpt>
      <trkpt lat="44.19834" lon="7.49592">
        <ele>1381.07</ele>
        <time>2020-01-29T11:18:35Z</time>
      </trkpt>
      <trkpt lat="44.19835" lon="7.49592">
        <ele>1379.63</ele>
        <time>2020-01-29T11:18:46Z</time>
      </trkpt>
      <trkpt lat="44.19837" lon="7.4959">
        <ele>1380.11</ele>
        <time>2020-01-29T11:19:14Z</time>
      </trkpt>
      <trkpt lat="44.19841" lon="7.49587">
        <ele>1381.55</ele>
        <time>2020-01-29T11:19:31Z</time>
      </trkpt>
      <trkpt lat="44.19842" lon="7.49593">
        <ele>1377.23</ele>
        <time>2020-01-29T11:19:40Z</time>
      </trkpt>
      <trkpt lat="44.19842" lon="7.49593">
        <ele>1378.19</ele>
        <time>2020-01-29T11:19:49Z</time>
      </trkpt>
      <trkpt lat="44.19839" lon="7.49594">
        <ele>1378.67</ele>
        <time>2020-01-29T11:19:58Z</time>
      </trkpt>
      <trkpt lat="44.19841" lon="7.49598">
        <ele>1379.15</ele>
        <time>2020-01-29T11:20:19Z</time>
      </trkpt>
      <trkpt lat="44.1984" lon="7.49602">
        <ele>1383.47</ele>
        <time>2020-01-29T11:20:46Z</time>
      </trkpt>
      <trkpt lat="44.1984" lon="7.49597">
        <ele>1385.88</ele>
        <time>2020-01-29T11:21:09Z</time>
      </trkpt>
      <trkpt lat="44.19841" lon="7.49593">
        <ele>1386.84</ele>
        <time>2020-01-29T11:21:24Z</time>
      </trkpt>
      <trkpt lat="44.19841" lon="7.49593">
        <ele>1386.36</ele>
        <time>2020-01-29T11:21:25Z</time>
      </trkpt>
    </trkseg>
  </trk>
</gpx>